DLH8P EDDM-KBOS
Flight info
| Callsign | DLH8P |
|---|---|
| Flight time | N/A |
| Altitude | 36000 |
| Route | GIVMI1N GIVMI Y101 INBED DCT REKDI DCT LOHRE DCT ADKUV DCT BUB DCT DENUT L610 KOPUL Q63 ICTAM L179 SAWPE DCT OZZIL DCT ARPAK DCT FELCA DCT OFSOX DCT SLANY DCT TOBOR/M084F380 DCT 5230N02000W 5230N03000W 5130N04000W 4930N05000W DCT IBERG/N0486F380 N364A TUSKY DCT EURRO OOSHN5 |
| Aircraft | A388/J-SADE2E3FGHIJ3J4J5M1RWXY/LB1D1 |
Departure
| Time | 2026-05-05 06:43 |
|---|---|
| Airport | Munich Airport (EDDM) |
Arrival
| Time | N/A |
|---|---|
| Airport | Boston Logan International Airport (KBOS) |
| Time | Latitude | Longitude | Altitude | Speed | Heading |
|---|---|---|---|---|---|
| 2026-05-05 06:09 | 48.35244 | 11.80045 | 1490 ft | 0 kts | 263° |
| 2026-05-05 06:28 | 48.35244 | 11.80046 | 1490 ft | 1 kts | 263° |
| 2026-05-05 06:28 | 48.35247 | 11.80081 | 1485 ft | 4 kts | 263° |
| 2026-05-05 06:28 | 48.35250 | 11.80114 | 1475 ft | 3 kts | 264° |
| 2026-05-05 06:29 | 48.35249 | 11.80150 | 1475 ft | 4 kts | 288° |
| 2026-05-05 06:29 | 48.35238 | 11.80174 | 1475 ft | 4 kts | 326° |
| 2026-05-05 06:29 | 48.35219 | 11.80184 | 1475 ft | 3 kts | 353° |
| 2026-05-05 06:29 | 48.35192 | 11.80189 | 1475 ft | 4 kts | 353° |
| 2026-05-05 06:30 | 48.35181 | 11.80191 | 1475 ft | 3 kts | 353° |
| 2026-05-05 06:32 | 48.35188 | 11.80189 | 1475 ft | 3 kts | 353° |
| 2026-05-05 06:32 | 48.35223 | 11.80183 | 1475 ft | 7 kts | 353° |
| 2026-05-05 06:32 | 48.35282 | 11.80173 | 1478 ft | 10 kts | 354° |
| 2026-05-05 06:33 | 48.35358 | 11.80161 | 1479 ft | 12 kts | 351° |
| 2026-05-05 06:33 | 48.35447 | 11.80134 | 1478 ft | 14 kts | 353° |
| 2026-05-05 06:33 | 48.35548 | 11.80117 | 1480 ft | 15 kts | 354° |
| 2026-05-05 06:33 | 48.35637 | 11.80103 | 1483 ft | 12 kts | 352° |
| 2026-05-05 06:34 | 48.35726 | 11.80076 | 1477 ft | 13 kts | 352° |
| 2026-05-05 06:34 | 48.35795 | 11.80064 | 1482 ft | 8 kts | 349° |
| 2026-05-05 06:34 | 48.35828 | 11.80015 | 1484 ft | 7 kts | 284° |
| 2026-05-05 06:34 | 48.35826 | 11.79935 | 1490 ft | 9 kts | 262° |
| 2026-05-05 06:35 | 48.35816 | 11.79827 | 1478 ft | 11 kts | 263° |
| 2026-05-05 06:35 | 48.35807 | 11.79701 | 1486 ft | 13 kts | 263° |
| 2026-05-05 06:35 | 48.35798 | 11.79588 | 1482 ft | 9 kts | 264° |
| 2026-05-05 06:35 | 48.35819 | 11.79528 | 1479 ft | 6 kts | 341° |
| 2026-05-05 06:36 | 48.35873 | 11.79517 | 1483 ft | 10 kts | 353° |
| 2026-05-05 06:36 | 48.35952 | 11.79503 | 1476 ft | 13 kts | 354° |
| 2026-05-05 06:36 | 48.36044 | 11.79489 | 1488 ft | 13 kts | 354° |
| 2026-05-05 06:36 | 48.36096 | 11.79503 | 1475 ft | 7 kts | 51° |
| 2026-05-05 06:37 | 48.36113 | 11.79584 | 1488 ft | 10 kts | 83° |
| 2026-05-05 06:37 | 48.36123 | 11.79713 | 1478 ft | 15 kts | 83° |
| 2026-05-05 06:37 | 48.36136 | 11.79884 | 1477 ft | 18 kts | 83° |
| 2026-05-05 06:37 | 48.36151 | 11.80077 | 1477 ft | 19 kts | 83° |
| 2026-05-05 06:38 | 48.36167 | 11.80284 | 1478 ft | 20 kts | 83° |
| 2026-05-05 06:38 | 48.36183 | 11.80501 | 1490 ft | 21 kts | 83° |
| 2026-05-05 06:38 | 48.36201 | 11.80727 | 1490 ft | 22 kts | 83° |
| 2026-05-05 06:38 | 48.36219 | 11.80957 | 1487 ft | 22 kts | 83° |
| 2026-05-05 06:39 | 48.36238 | 11.81189 | 1478 ft | 23 kts | 83° |
| 2026-05-05 06:39 | 48.36256 | 11.81429 | 1490 ft | 23 kts | 83° |
| 2026-05-05 06:39 | 48.36274 | 11.81664 | 1481 ft | 19 kts | 84° |
| 2026-05-05 06:39 | 48.36289 | 11.81867 | 1479 ft | 20 kts | 84° |
| 2026-05-05 06:40 | 48.36303 | 11.82055 | 1490 ft | 12 kts | 83° |
| 2026-05-05 06:40 | 48.36344 | 11.82144 | 1480 ft | 11 kts | 19° |
| 2026-05-05 06:40 | 48.36425 | 11.82144 | 1476 ft | 13 kts | 353° |
| 2026-05-05 06:40 | 48.36518 | 11.82126 | 1490 ft | 14 kts | 353° |
| 2026-05-05 06:41 | 48.36607 | 11.82097 | 1478 ft | 14 kts | 339° |
| 2026-05-05 06:41 | 48.36668 | 11.82045 | 1475 ft | 7 kts | 313° |
| 2026-05-05 06:41 | 48.36683 | 11.81983 | 1480 ft | 7 kts | 262° |
| 2026-05-05 06:41 | 48.36673 | 11.81875 | 1483 ft | 21 kts | 262° |
| 2026-05-05 06:42 | 48.36624 | 11.81280 | 1476 ft | 94 kts | 263° |
| 2026-05-05 06:42 | 48.36526 | 11.80002 | 1480 ft | 148 kts | 263° |
| 2026-05-05 06:42 | 48.36397 | 11.78304 | 1612 ft | 172 kts | 264° |
| 2026-05-05 06:42 | 48.36295 | 11.76515 | 2086 ft | 172 kts | 265° |
| 2026-05-05 06:43 | 48.36235 | 11.74749 | 2622 ft | 171 kts | 266° |
| 2026-05-05 06:43 | 48.36142 | 11.72904 | 2934 ft | 184 kts | 264° |
| 2026-05-05 06:43 | 48.35992 | 11.70918 | 3125 ft | 198 kts | 262° |
| 2026-05-05 06:43 | 48.35849 | 11.68785 | 3295 ft | 214 kts | 271° |
| 2026-05-05 06:44 | 48.36228 | 11.66533 | 3654 ft | 232 kts | 297° |
| 2026-05-05 06:44 | 48.37081 | 11.64371 | 4016 ft | 252 kts | 301° |
| 2026-05-05 06:44 | 48.38062 | 11.62054 | 4483 ft | 269 kts | 302° |
| 2026-05-05 06:44 | 48.39076 | 11.59662 | 5210 ft | 273 kts | 301° |
| 2026-05-05 06:45 | 48.40077 | 11.57252 | 5955 ft | 277 kts | 300° |
| 2026-05-05 06:45 | 48.41089 | 11.54769 | 6686 ft | 280 kts | 300° |
| 2026-05-05 06:45 | 48.42110 | 11.52254 | 7425 ft | 283 kts | 300° |
| 2026-05-05 06:45 | 48.43140 | 11.49714 | 8154 ft | 286 kts | 300° |
| 2026-05-05 06:46 | 48.44181 | 11.47147 | 8889 ft | 289 kts | 300° |
| 2026-05-05 06:46 | 48.45303 | 11.44622 | 9597 ft | 294 kts | 311° |
| 2026-05-05 06:46 | 48.46972 | 11.42837 | 10300 ft | 298 kts | 338° |
| 2026-05-05 06:46 | 48.48995 | 11.42085 | 10886 ft | 306 kts | 349° |
| 2026-05-05 06:47 | 48.51136 | 11.41554 | 11074 ft | 326 kts | 350° |
| 2026-05-05 06:47 | 48.53437 | 11.40997 | 11235 ft | 344 kts | 350° |
| 2026-05-05 06:47 | 48.55846 | 11.40382 | 11580 ft | 356 kts | 349° |
| 2026-05-05 06:47 | 48.58294 | 11.39731 | 12192 ft | 359 kts | 349° |
| 2026-05-05 06:48 | 48.60764 | 11.39059 | 12764 ft | 363 kts | 348° |
| 2026-05-05 06:48 | 48.63253 | 11.38374 | 13374 ft | 366 kts | 348° |
| 2026-05-05 06:48 | 48.65774 | 11.37679 | 13925 ft | 370 kts | 348° |
| 2026-05-05 06:48 | 48.68309 | 11.36916 | 14475 ft | 372 kts | 343° |
| 2026-05-05 06:49 | 48.70751 | 11.35575 | 14947 ft | 375 kts | 332° |
| 2026-05-05 06:49 | 48.72974 | 11.33621 | 15497 ft | 375 kts | 323° |
| 2026-05-05 06:49 | 48.75135 | 11.31376 | 16004 ft | 378 kts | 324° |
| 2026-05-05 06:49 | 48.77325 | 11.29163 | 16591 ft | 379 kts | 324° |
| 2026-05-05 06:50 | 48.79532 | 11.26944 | 17093 ft | 382 kts | 324° |
| 2026-05-05 06:50 | 48.81750 | 11.24702 | 17599 ft | 385 kts | 324° |
| 2026-05-05 06:50 | 48.84036 | 11.22542 | 18077 ft | 390 kts | 330° |
| 2026-05-05 06:50 | 48.86526 | 11.20872 | 18556 ft | 393 kts | 339° |
| 2026-05-05 06:51 | 48.89138 | 11.19590 | 18997 ft | 396 kts | 340° |
| 2026-05-05 06:51 | 48.91759 | 11.18274 | 19441 ft | 398 kts | 340° |
| 2026-05-05 06:51 | 48.94354 | 11.16948 | 19875 ft | 400 kts | 340° |
| 2026-05-05 06:51 | 48.95911 | 11.16151 | 20126 ft | 401 kts | 340° |
| 2026-05-05 06:52 | 48.98570 | 11.14790 | 20558 ft | 403 kts | 340° |
| 2026-05-05 06:52 | 49.01235 | 11.13430 | 21026 ft | 404 kts | 339° |
| 2026-05-05 06:52 | 49.03910 | 11.12064 | 21435 ft | 407 kts | 339° |
| 2026-05-05 06:52 | 49.06596 | 11.10688 | 21829 ft | 409 kts | 339° |
| 2026-05-05 06:53 | 49.09305 | 11.09301 | 22225 ft | 412 kts | 339° |
| 2026-05-05 06:53 | 49.12032 | 11.07909 | 22643 ft | 415 kts | 339° |
| 2026-05-05 06:53 | 49.14744 | 11.06527 | 23042 ft | 417 kts | 339° |
| 2026-05-05 06:53 | 49.17505 | 11.05120 | 23437 ft | 420 kts | 339° |
| 2026-05-05 06:54 | 49.20281 | 11.03702 | 23795 ft | 422 kts | 339° |
| 2026-05-05 06:54 | 49.23064 | 11.02272 | 24165 ft | 423 kts | 338° |
| 2026-05-05 06:54 | 49.25855 | 11.00833 | 24560 ft | 424 kts | 338° |
| 2026-05-05 06:54 | 49.28657 | 10.99380 | 24867 ft | 426 kts | 338° |
| 2026-05-05 06:55 | 49.31477 | 10.97927 | 25227 ft | 429 kts | 338° |
| 2026-05-05 06:55 | 49.34310 | 10.96466 | 25594 ft | 431 kts | 338° |
| 2026-05-05 06:55 | 49.37065 | 10.94688 | 25953 ft | 429 kts | 327° |
| 2026-05-05 06:55 | 49.39480 | 10.92150 | 26348 ft | 426 kts | 316° |
| 2026-05-05 06:56 | 49.41543 | 10.88920 | 26735 ft | 423 kts | 305° |
| 2026-05-05 06:56 | 49.43374 | 10.85385 | 27131 ft | 425 kts | 305° |
| 2026-05-05 06:56 | 49.45242 | 10.81846 | 27552 ft | 428 kts | 306° |
| 2026-05-05 06:56 | 49.47127 | 10.78294 | 28009 ft | 430 kts | 306° |
| 2026-05-05 06:57 | 49.49018 | 10.74723 | 28423 ft | 433 kts | 305° |
| 2026-05-05 06:57 | 49.50920 | 10.71114 | 28801 ft | 435 kts | 305° |
| 2026-05-05 06:57 | 49.52832 | 10.67478 | 29226 ft | 438 kts | 305° |
| 2026-05-05 06:57 | 49.54746 | 10.63829 | 29635 ft | 440 kts | 305° |
| 2026-05-05 06:58 | 49.56649 | 10.60196 | 30038 ft | 443 kts | 305° |
| 2026-05-05 06:58 | 49.58588 | 10.56489 | 30391 ft | 445 kts | 304° |
| 2026-05-05 06:58 | 49.60536 | 10.52759 | 30771 ft | 448 kts | 304° |
| 2026-05-05 06:58 | 49.62493 | 10.49004 | 31123 ft | 450 kts | 304° |
| 2026-05-05 06:59 | 49.64461 | 10.45226 | 31479 ft | 453 kts | 304° |
| 2026-05-05 06:59 | 49.66351 | 10.41336 | 31808 ft | 453 kts | 299° |
| 2026-05-05 06:59 | 49.68113 | 10.37287 | 32154 ft | 456 kts | 300° |
| 2026-05-05 06:59 | 49.69905 | 10.33231 | 32509 ft | 458 kts | 300° |
| 2026-05-05 07:00 | 49.71686 | 10.29212 | 32850 ft | 460 kts | 300° |
| 2026-05-05 07:00 | 49.73497 | 10.25116 | 33186 ft | 463 kts | 300° |
| 2026-05-05 07:00 | 49.75314 | 10.20996 | 33626 ft | 463 kts | 300° |
| 2026-05-05 07:00 | 49.77121 | 10.16890 | 34028 ft | 464 kts | 300° |
| 2026-05-05 07:01 | 49.78943 | 10.12734 | 34259 ft | 468 kts | 300° |
| 2026-05-05 07:01 | 49.80772 | 10.08555 | 34547 ft | 470 kts | 300° |
| 2026-05-05 07:01 | 49.82603 | 10.04367 | 34901 ft | 471 kts | 300° |
| 2026-05-05 07:01 | 49.84438 | 10.00167 | 35310 ft | 471 kts | 299° |
| 2026-05-05 07:02 | 49.86274 | 9.95956 | 35616 ft | 473 kts | 299° |
| 2026-05-05 07:02 | 49.88092 | 9.91778 | 35850 ft | 476 kts | 299° |
| 2026-05-05 07:02 | 49.89948 | 9.87504 | 35866 ft | 476 kts | 299° |
| 2026-05-05 07:03 | 49.93633 | 9.79008 | 35867 ft | 475 kts | 299° |
| 2026-05-05 07:03 | 49.97319 | 9.70476 | 35868 ft | 476 kts | 299° |
| 2026-05-05 07:04 | 50.01000 | 9.61930 | 35868 ft | 476 kts | 299° |
| 2026-05-05 07:04 | 50.04585 | 9.53387 | 35884 ft | 471 kts | 294° |
| 2026-05-05 07:05 | 50.07313 | 9.44285 | 35834 ft | 459 kts | 285° |
| 2026-05-05 07:05 | 50.09100 | 9.34865 | 35868 ft | 453 kts | 281° |
| 2026-05-05 07:06 | 50.10805 | 9.25294 | 35867 ft | 460 kts | 281° |
| 2026-05-05 07:06 | 50.12503 | 9.15690 | 35879 ft | 461 kts | 281° |
| 2026-05-05 07:07 | 50.14178 | 9.06088 | 35873 ft | 462 kts | 280° |
| 2026-05-05 07:07 | 50.15851 | 8.96435 | 35875 ft | 462 kts | 280° |
| 2026-05-05 07:08 | 50.17518 | 8.86758 | 35877 ft | 462 kts | 280° |
| 2026-05-05 07:08 | 50.19174 | 8.77088 | 35878 ft | 462 kts | 280° |
| 2026-05-05 07:09 | 50.20825 | 8.67402 | 35880 ft | 462 kts | 280° |
| 2026-05-05 07:09 | 50.22457 | 8.57773 | 35885 ft | 462 kts | 280° |
| 2026-05-05 07:10 | 50.24092 | 8.48068 | 35882 ft | 462 kts | 280° |
| 2026-05-05 07:10 | 50.25719 | 8.38355 | 35894 ft | 462 kts | 280° |
| 2026-05-05 07:11 | 50.27336 | 8.28652 | 35912 ft | 462 kts | 279° |
| 2026-05-05 07:11 | 50.28937 | 8.18988 | 35882 ft | 462 kts | 279° |
| 2026-05-05 07:12 | 50.30540 | 8.09256 | 35878 ft | 462 kts | 279° |
| 2026-05-05 07:12 | 50.32135 | 7.99514 | 35875 ft | 462 kts | 279° |
| 2026-05-05 07:13 | 50.33722 | 7.89771 | 35887 ft | 463 kts | 279° |
| 2026-05-05 07:13 | 50.35304 | 7.80001 | 35890 ft | 463 kts | 279° |
| 2026-05-05 07:14 | 50.36868 | 7.70283 | 35879 ft | 463 kts | 279° |
| 2026-05-05 07:14 | 50.38432 | 7.60505 | 35884 ft | 463 kts | 279° |
| 2026-05-05 07:15 | 50.39989 | 7.50717 | 35886 ft | 462 kts | 279° |
| 2026-05-05 07:15 | 50.41535 | 7.40940 | 35911 ft | 462 kts | 279° |
| 2026-05-05 07:16 | 50.43067 | 7.31169 | 35891 ft | 461 kts | 279° |
| 2026-05-05 07:16 | 50.44584 | 7.21481 | 35883 ft | 460 kts | 279° |
| 2026-05-05 07:17 | 50.46096 | 7.11749 | 35874 ft | 458 kts | 279° |
| 2026-05-05 07:17 | 50.47596 | 7.02028 | 35863 ft | 458 kts | 279° |
| 2026-05-05 07:18 | 50.49088 | 6.92312 | 35864 ft | 459 kts | 279° |
| 2026-05-05 07:18 | 50.50569 | 6.82622 | 35846 ft | 459 kts | 279° |
| 2026-05-05 07:19 | 50.52238 | 6.72905 | 35858 ft | 462 kts | 282° |
| 2026-05-05 07:19 | 50.54076 | 6.63231 | 35869 ft | 462 kts | 282° |
| 2026-05-05 07:20 | 50.55873 | 6.53516 | 35871 ft | 463 kts | 282° |
| 2026-05-05 07:20 | 50.57630 | 6.43843 | 35875 ft | 464 kts | 281° |
| 2026-05-05 07:21 | 50.59395 | 6.34057 | 35878 ft | 465 kts | 281° |
| 2026-05-05 07:21 | 50.61155 | 6.24254 | 35888 ft | 466 kts | 281° |
| 2026-05-05 07:22 | 50.62909 | 6.14427 | 35901 ft | 466 kts | 281° |
| 2026-05-05 07:22 | 50.64656 | 6.04589 | 35908 ft | 466 kts | 281° |
| 2026-05-05 07:23 | 50.66386 | 5.94792 | 35902 ft | 467 kts | 281° |
| 2026-05-05 07:23 | 50.68117 | 5.84934 | 35901 ft | 467 kts | 281° |
| 2026-05-05 07:24 | 50.69844 | 5.75044 | 35886 ft | 468 kts | 281° |
| 2026-05-05 07:24 | 50.71564 | 5.65144 | 35894 ft | 468 kts | 280° |
| 2026-05-05 07:25 | 50.73276 | 5.55230 | 35903 ft | 468 kts | 280° |
| 2026-05-05 07:25 | 50.74970 | 5.45366 | 35905 ft | 469 kts | 280° |
| 2026-05-05 07:26 | 50.76664 | 5.35439 | 35916 ft | 469 kts | 281° |
| 2026-05-05 07:26 | 50.78353 | 5.25496 | 35912 ft | 468 kts | 281° |
| 2026-05-05 07:27 | 50.80029 | 5.15564 | 35927 ft | 467 kts | 280° |
| 2026-05-05 07:27 | 50.81697 | 5.05621 | 35898 ft | 468 kts | 281° |
| 2026-05-05 07:28 | 50.83345 | 4.95744 | 35897 ft | 468 kts | 281° |
| 2026-05-05 07:28 | 50.84997 | 4.85782 | 35900 ft | 468 kts | 280° |
| 2026-05-05 07:29 | 50.86643 | 4.75801 | 35904 ft | 469 kts | 280° |
| 2026-05-05 07:29 | 50.88284 | 4.65793 | 35905 ft | 470 kts | 281° |
| 2026-05-05 07:30 | 50.90044 | 4.55878 | 35908 ft | 474 kts | 287° |
| 2026-05-05 07:30 | 50.94802 | 4.41986 | 35910 ft | 481 kts | 297° |
| 2026-05-05 07:31 | 50.98266 | 4.32929 | 35915 ft | 481 kts | 297° |
| 2026-05-05 07:31 | 51.01731 | 4.23836 | 35921 ft | 481 kts | 297° |
| 2026-05-05 07:32 | 51.05171 | 4.14792 | 35939 ft | 481 kts | 297° |
| 2026-05-05 07:32 | 51.08629 | 4.05674 | 35938 ft | 481 kts | 297° |
| 2026-05-05 07:33 | 51.12078 | 3.96544 | 35937 ft | 481 kts | 296° |
| 2026-05-05 07:33 | 51.15515 | 3.87414 | 35936 ft | 481 kts | 296° |
| 2026-05-05 07:34 | 51.18927 | 3.78318 | 35940 ft | 481 kts | 297° |
| 2026-05-05 07:34 | 51.22236 | 3.69077 | 35932 ft | 478 kts | 291° |
| 2026-05-05 07:35 | 51.24462 | 3.59177 | 35934 ft | 472 kts | 280° |
| 2026-05-05 07:35 | 51.25820 | 3.48957 | 35936 ft | 471 kts | 278° |
| 2026-05-05 07:36 | 51.27183 | 3.38801 | 35934 ft | 471 kts | 278° |
| 2026-05-05 07:36 | 51.28512 | 3.28560 | 35941 ft | 471 kts | 278° |
| 2026-05-05 07:37 | 51.29823 | 3.18301 | 35951 ft | 471 kts | 278° |
| 2026-05-05 07:37 | 51.31124 | 3.08052 | 35952 ft | 470 kts | 278° |
| 2026-05-05 07:38 | 51.32415 | 2.97813 | 35946 ft | 469 kts | 278° |
| 2026-05-05 07:38 | 51.33685 | 2.87662 | 35941 ft | 469 kts | 278° |
| 2026-05-05 07:39 | 51.34955 | 2.77436 | 35930 ft | 469 kts | 278° |
| 2026-05-05 07:39 | 51.36219 | 2.67208 | 35932 ft | 469 kts | 278° |
| 2026-05-05 07:40 | 51.37479 | 2.56968 | 35938 ft | 469 kts | 278° |
| 2026-05-05 07:40 | 51.38721 | 2.46790 | 35948 ft | 470 kts | 278° |
| 2026-05-05 07:41 | 51.39963 | 2.36521 | 35948 ft | 470 kts | 279° |
| 2026-05-05 07:41 | 51.41201 | 2.26220 | 35954 ft | 471 kts | 279° |
| 2026-05-05 07:42 | 51.42455 | 2.15907 | 35959 ft | 472 kts | 279° |
| 2026-05-05 07:42 | 51.43716 | 2.05579 | 35970 ft | 472 kts | 279° |
| 2026-05-05 07:43 | 51.44953 | 1.95305 | 35969 ft | 472 kts | 278° |
| 2026-05-05 07:43 | 51.46167 | 1.84955 | 35970 ft | 473 kts | 279° |
| 2026-05-05 07:44 | 51.47368 | 1.74568 | 35971 ft | 474 kts | 278° |
| 2026-05-05 07:44 | 51.48561 | 1.64166 | 35976 ft | 474 kts | 278° |
| 2026-05-05 07:45 | 51.49739 | 1.53822 | 35978 ft | 474 kts | 278° |
| 2026-05-05 07:45 | 51.50918 | 1.43391 | 35521 ft | 474 kts | 278° |
| 2026-05-05 07:46 | 51.51502 | 1.38194 | 35106 ft | 472 kts | 279° |
| 2026-05-05 07:46 | 51.52082 | 1.33008 | 34976 ft | 472 kts | 279° |
| 2026-05-05 07:46 | 51.52662 | 1.27794 | 35084 ft | 477 kts | 279° |
| 2026-05-05 07:46 | 51.53243 | 1.22560 | 35202 ft | 477 kts | 278° |
| 2026-05-05 07:47 | 51.53816 | 1.17308 | 35326 ft | 477 kts | 277° |
| 2026-05-05 07:47 | 51.54144 | 1.12081 | 35451 ft | 476 kts | 271° |
| 2026-05-05 07:47 | 51.54139 | 1.06767 | 35579 ft | 476 kts | 267° |
| 2026-05-05 07:47 | 51.54054 | 1.01453 | 35700 ft | 476 kts | 268° |
| 2026-05-05 07:48 | 51.53988 | 0.96137 | 35844 ft | 476 kts | 268° |
| 2026-05-05 07:48 | 51.53924 | 0.90820 | 35967 ft | 477 kts | 268° |
| 2026-05-05 07:48 | 51.53785 | 0.80207 | 35993 ft | 474 kts | 268° |
| 2026-05-05 07:49 | 51.53630 | 0.69594 | 35992 ft | 476 kts | 268° |
| 2026-05-05 07:49 | 51.53466 | 0.59071 | 35992 ft | 475 kts | 268° |
| 2026-05-05 07:50 | 51.53291 | 0.48457 | 35991 ft | 476 kts | 268° |
| 2026-05-05 07:50 | 51.53108 | 0.37845 | 35982 ft | 475 kts | 268° |
| 2026-05-05 07:51 | 51.53114 | 0.27225 | 35985 ft | 476 kts | 270° |
| 2026-05-05 07:51 | 51.53179 | 0.16664 | 35987 ft | 476 kts | 269° |
| 2026-05-05 07:52 | 51.53206 | 0.06036 | 35990 ft | 476 kts | 269° |
| 2026-05-05 07:52 | 51.53215 | -0.04612 | 35969 ft | 478 kts | 269° |
| 2026-05-05 07:53 | 51.53216 | -0.09977 | 36140 ft | 482 kts | 269° |
| 2026-05-05 07:53 | 51.53211 | -0.15360 | 36526 ft | 482 kts | 269° |
| 2026-05-05 07:53 | 51.53206 | -0.20740 | 36913 ft | 482 kts | 269° |
| 2026-05-05 07:53 | 51.53198 | -0.26054 | 37280 ft | 483 kts | 269° |
| 2026-05-05 07:54 | 51.53188 | -0.31447 | 37647 ft | 483 kts | 269° |
| 2026-05-05 07:54 | 51.53175 | -0.36845 | 37951 ft | 484 kts | 269° |
| 2026-05-05 07:54 | 51.53144 | -0.47658 | 37993 ft | 478 kts | 269° |
| 2026-05-05 07:55 | 51.53102 | -0.58363 | 37992 ft | 481 kts | 269° |
| 2026-05-05 07:55 | 51.53050 | -0.69088 | 37992 ft | 481 kts | 269° |
| 2026-05-05 07:56 | 51.52989 | -0.79766 | 37992 ft | 481 kts | 268° |
| 2026-05-05 07:56 | 51.52917 | -0.90502 | 37997 ft | 481 kts | 268° |
| 2026-05-05 07:57 | 51.52836 | -1.01251 | 37993 ft | 483 kts | 268° |
| 2026-05-05 07:57 | 51.52754 | -1.12042 | 38007 ft | 483 kts | 270° |
| 2026-05-05 07:58 | 51.53445 | -1.22703 | 38003 ft | 485 kts | 280° |
| 2026-05-05 07:58 | 51.54732 | -1.33343 | 38005 ft | 485 kts | 279° |
| 2026-05-05 07:59 | 51.55980 | -1.43996 | 38024 ft | 485 kts | 279° |
| 2026-05-05 07:59 | 51.57219 | -1.54650 | 38038 ft | 486 kts | 279° |
| 2026-05-05 08:00 | 51.58437 | -1.65323 | 38030 ft | 485 kts | 277° |
| 2026-05-05 08:00 | 51.59227 | -1.76002 | 38024 ft | 484 kts | 276° |
| 2026-05-05 08:01 | 51.60012 | -1.86747 | 38017 ft | 484 kts | 276° |
| 2026-05-05 08:01 | 51.60785 | -1.97501 | 38017 ft | 484 kts | 275° |
| 2026-05-05 08:02 | 51.61547 | -2.08249 | 38024 ft | 484 kts | 275° |
| 2026-05-05 08:02 | 51.62288 | -2.18941 | 38021 ft | 484 kts | 275° |
| 2026-05-05 08:03 | 51.63028 | -2.29715 | 38030 ft | 484 kts | 275° |
| 2026-05-05 08:03 | 51.63819 | -2.40489 | 38033 ft | 485 kts | 279° |
| 2026-05-05 08:04 | 51.65509 | -2.51022 | 38016 ft | 487 kts | 287° |
| 2026-05-05 08:04 | 51.67571 | -2.61347 | 38020 ft | 488 kts | 286° |
| 2026-05-05 08:05 | 51.69624 | -2.71776 | 38028 ft | 488 kts | 287° |
| 2026-05-05 08:05 | 51.71671 | -2.82217 | 37997 ft | 489 kts | 286° |
| 2026-05-05 08:06 | 51.73369 | -2.90924 | 38001 ft | 489 kts | 286° |
| 2026-05-05 08:06 | 51.75733 | -3.03109 | 38005 ft | 489 kts | 286° |
| 2026-05-05 08:07 | 51.77754 | -3.13585 | 38002 ft | 489 kts | 287° |
| 2026-05-05 08:07 | 51.79767 | -3.24080 | 38013 ft | 489 kts | 287° |
| 2026-05-05 08:08 | 51.81151 | -3.32923 | 38021 ft | 488 kts | 279° |
| 2026-05-05 08:08 | 51.81921 | -3.43809 | 38017 ft | 488 kts | 275° |
| 2026-05-05 08:09 | 51.82843 | -3.56454 | 38024 ft | 488 kts | 281° |
| 2026-05-05 08:09 | 51.84029 | -3.65378 | 38021 ft | 489 kts | 281° |
| 2026-05-05 08:10 | 51.85417 | -3.76128 | 38037 ft | 489 kts | 281° |
| 2026-05-05 08:10 | 51.86795 | -3.86910 | 38040 ft | 489 kts | 281° |
| 2026-05-05 08:11 | 51.88167 | -3.97708 | 38036 ft | 490 kts | 281° |
| 2026-05-05 08:11 | 51.89531 | -4.08512 | 38045 ft | 490 kts | 281° |
| 2026-05-05 08:12 | 51.90878 | -4.19272 | 38048 ft | 491 kts | 281° |
| 2026-05-05 08:12 | 51.92226 | -4.30121 | 38054 ft | 491 kts | 281° |
| 2026-05-05 08:13 | 51.93562 | -4.40963 | 38052 ft | 491 kts | 281° |
| 2026-05-05 08:13 | 51.94888 | -4.51815 | 38051 ft | 491 kts | 281° |
| 2026-05-05 08:14 | 51.96195 | -4.62595 | 38066 ft | 490 kts | 281° |
| 2026-05-05 08:14 | 51.97497 | -4.73420 | 38062 ft | 489 kts | 281° |
| 2026-05-05 08:15 | 51.98789 | -4.84252 | 38058 ft | 489 kts | 281° |
| 2026-05-05 08:15 | 52.00068 | -4.95070 | 38065 ft | 488 kts | 281° |
| 2026-05-05 08:16 | 52.01325 | -5.05784 | 38058 ft | 487 kts | 281° |
| 2026-05-05 08:16 | 52.02582 | -5.16585 | 38055 ft | 486 kts | 281° |
| 2026-05-05 08:17 | 52.04451 | -5.27106 | 38047 ft | 486 kts | 288° |
| 2026-05-05 08:17 | 52.06568 | -5.37523 | 38053 ft | 486 kts | 288° |
| 2026-05-05 08:18 | 52.08662 | -5.47961 | 38053 ft | 486 kts | 288° |
| 2026-05-05 08:18 | 52.10735 | -5.58334 | 38058 ft | 486 kts | 288° |
| 2026-05-05 08:19 | 52.12816 | -5.68805 | 38065 ft | 486 kts | 288° |
| 2026-05-05 08:19 | 52.14886 | -5.79295 | 38082 ft | 486 kts | 287° |
| 2026-05-05 08:20 | 52.16303 | -5.90046 | 38093 ft | 486 kts | 277° |
| 2026-05-05 08:20 | 52.17083 | -6.00886 | 38088 ft | 484 kts | 277° |
| 2026-05-05 08:21 | 52.17902 | -6.11760 | 38093 ft | 483 kts | 277° |
| 2026-05-05 08:21 | 52.18713 | -6.22595 | 38078 ft | 481 kts | 277° |
| 2026-05-05 08:22 | 52.19511 | -6.33421 | 38069 ft | 481 kts | 277° |
| 2026-05-05 08:22 | 52.20288 | -6.44159 | 38066 ft | 480 kts | 277° |
| 2026-05-05 08:23 | 52.21048 | -6.54944 | 38068 ft | 479 kts | 277° |
| 2026-05-05 08:23 | 52.21806 | -6.65708 | 38091 ft | 478 kts | 277° |
| 2026-05-05 08:24 | 52.22545 | -6.76416 | 38075 ft | 479 kts | 277° |
| 2026-05-05 08:24 | 52.23278 | -6.87205 | 38092 ft | 478 kts | 277° |
| 2026-05-05 08:25 | 52.24002 | -6.97994 | 38118 ft | 478 kts | 277° |
| 2026-05-05 08:25 | 52.24722 | -7.08776 | 38115 ft | 478 kts | 277° |
| 2026-05-05 08:26 | 52.25422 | -7.19543 | 38112 ft | 477 kts | 276° |
| 2026-05-05 08:26 | 52.26108 | -7.30248 | 38095 ft | 477 kts | 276° |
| 2026-05-05 08:27 | 52.26790 | -7.41021 | 38111 ft | 477 kts | 276° |
| 2026-05-05 08:27 | 52.27461 | -7.51782 | 38102 ft | 476 kts | 276° |
| 2026-05-05 08:28 | 52.28135 | -7.62527 | 38109 ft | 475 kts | 276° |
| 2026-05-05 08:28 | 52.28791 | -7.73187 | 38111 ft | 474 kts | 276° |
| 2026-05-05 08:29 | 52.29416 | -7.83900 | 38105 ft | 474 kts | 276° |
| 2026-05-05 08:30 | 52.30351 | -7.99976 | 38107 ft | 474 kts | 276° |
| 2026-05-05 08:30 | 52.30966 | -8.10688 | 38107 ft | 473 kts | 276° |
| 2026-05-05 08:31 | 52.31567 | -8.21331 | 38111 ft | 473 kts | 276° |
| 2026-05-05 08:31 | 52.32163 | -8.32056 | 38108 ft | 474 kts | 276° |
| 2026-05-05 08:32 | 52.32749 | -8.42777 | 38113 ft | 474 kts | 275° |
| 2026-05-05 08:32 | 52.33326 | -8.53517 | 38117 ft | 474 kts | 275° |
| 2026-05-05 08:33 | 52.33893 | -8.64265 | 38120 ft | 474 kts | 275° |
| 2026-05-05 08:33 | 52.34448 | -8.74942 | 38125 ft | 474 kts | 275° |
| 2026-05-05 08:34 | 52.34995 | -8.85691 | 38126 ft | 474 kts | 275° |
| 2026-05-05 08:34 | 52.35533 | -8.96431 | 38124 ft | 474 kts | 275° |
| 2026-05-05 08:35 | 52.36061 | -9.07181 | 38128 ft | 474 kts | 275° |
| 2026-05-05 08:35 | 52.36576 | -9.17858 | 38127 ft | 474 kts | 275° |
| 2026-05-05 08:36 | 52.37084 | -9.28607 | 38127 ft | 474 kts | 275° |
| 2026-05-05 08:36 | 52.37582 | -9.39343 | 38127 ft | 474 kts | 275° |
| 2026-05-05 08:37 | 52.38071 | -9.50094 | 38138 ft | 473 kts | 275° |
| 2026-05-05 08:37 | 52.38549 | -9.60832 | 38133 ft | 473 kts | 275° |
| 2026-05-05 08:38 | 52.39015 | -9.71502 | 38128 ft | 473 kts | 275° |
| 2026-05-05 08:38 | 52.39473 | -9.82236 | 38123 ft | 472 kts | 275° |
| 2026-05-05 08:39 | 52.39922 | -9.92966 | 38123 ft | 472 kts | 274° |
| 2026-05-05 08:39 | 52.40361 | -10.03693 | 38126 ft | 472 kts | 275° |
| 2026-05-05 08:40 | 52.40789 | -10.14403 | 38123 ft | 472 kts | 274° |
| 2026-05-05 08:40 | 52.41205 | -10.25055 | 38123 ft | 472 kts | 274° |
| 2026-05-05 08:41 | 52.41615 | -10.35781 | 38127 ft | 472 kts | 274° |
| 2026-05-05 08:41 | 52.42014 | -10.46512 | 38127 ft | 472 kts | 274° |
| 2026-05-05 08:42 | 52.42404 | -10.57249 | 38129 ft | 472 kts | 274° |
| 2026-05-05 08:42 | 52.42782 | -10.67907 | 38131 ft | 472 kts | 274° |
| 2026-05-05 08:43 | 52.43153 | -10.78655 | 38132 ft | 472 kts | 274° |
| 2026-05-05 08:43 | 52.43515 | -10.89406 | 38135 ft | 472 kts | 274° |
| 2026-05-05 08:44 | 52.43866 | -11.00160 | 38142 ft | 473 kts | 274° |
| 2026-05-05 08:44 | 52.44206 | -11.10843 | 38147 ft | 472 kts | 274° |
| 2026-05-05 08:45 | 52.44538 | -11.21598 | 38146 ft | 472 kts | 274° |
| 2026-05-05 08:45 | 52.44860 | -11.32352 | 38140 ft | 472 kts | 274° |
| 2026-05-05 08:46 | 52.45173 | -11.43095 | 38154 ft | 472 kts | 274° |
| 2026-05-05 08:46 | 52.45475 | -11.53848 | 38155 ft | 472 kts | 274° |
| 2026-05-05 08:47 | 52.45766 | -11.64518 | 38147 ft | 471 kts | 273° |
| 2026-05-05 08:47 | 52.46049 | -11.75253 | 38151 ft | 471 kts | 273° |
| 2026-05-05 08:48 | 52.46321 | -11.85981 | 38147 ft | 471 kts | 273° |
| 2026-05-05 08:48 | 52.46584 | -11.96706 | 38144 ft | 471 kts | 273° |
| 2026-05-05 08:49 | 52.46836 | -12.07345 | 38160 ft | 470 kts | 273° |
| 2026-05-05 08:49 | 52.47079 | -12.18068 | 38156 ft | 470 kts | 273° |
| 2026-05-05 08:50 | 52.47313 | -12.28791 | 38161 ft | 471 kts | 273° |
| 2026-05-05 08:50 | 52.47538 | -12.39523 | 38165 ft | 471 kts | 273° |
| 2026-05-05 08:51 | 52.47751 | -12.50191 | 38170 ft | 471 kts | 272° |
| 2026-05-05 08:51 | 52.47956 | -12.60936 | 38162 ft | 471 kts | 272° |
| 2026-05-05 08:52 | 52.48151 | -12.71686 | 38177 ft | 471 kts | 272° |
| 2026-05-05 08:52 | 52.48337 | -12.82442 | 38177 ft | 472 kts | 272° |
| 2026-05-05 08:53 | 52.48512 | -12.93119 | 38182 ft | 472 kts | 272° |
| 2026-05-05 08:53 | 52.48678 | -13.03882 | 38179 ft | 472 kts | 272° |
| 2026-05-05 08:54 | 52.48835 | -13.14631 | 38185 ft | 472 kts | 272° |
| 2026-05-05 08:54 | 52.48982 | -13.25388 | 38185 ft | 471 kts | 272° |
| 2026-05-05 08:55 | 52.49118 | -13.36072 | 38183 ft | 471 kts | 272° |
| 2026-05-05 08:55 | 52.49245 | -13.46819 | 38191 ft | 471 kts | 272° |
| 2026-05-05 08:56 | 52.49363 | -13.57571 | 38180 ft | 471 kts | 272° |
| 2026-05-05 08:56 | 52.49470 | -13.68311 | 38193 ft | 470 kts | 272° |
| 2026-05-05 08:57 | 52.49568 | -13.79046 | 38193 ft | 470 kts | 272° |
| 2026-05-05 08:57 | 52.49656 | -13.89697 | 38194 ft | 470 kts | 272° |
| 2026-05-05 08:58 | 52.49735 | -14.00431 | 38198 ft | 470 kts | 271° |
| 2026-05-05 08:58 | 52.49803 | -14.11164 | 38196 ft | 470 kts | 271° |
| 2026-05-05 08:59 | 52.49863 | -14.21891 | 38202 ft | 470 kts | 271° |
| 2026-05-05 08:59 | 52.49912 | -14.32618 | 38201 ft | 470 kts | 271° |
| 2026-05-05 09:00 | 52.49952 | -14.43274 | 38201 ft | 470 kts | 271° |
| 2026-05-05 09:00 | 52.49982 | -14.54000 | 38212 ft | 470 kts | 271° |
| 2026-05-05 09:01 | 52.50004 | -14.64714 | 38209 ft | 470 kts | 271° |
| 2026-05-05 09:01 | 52.50022 | -14.75441 | 38209 ft | 470 kts | 271° |
| 2026-05-05 09:02 | 52.50033 | -14.86099 | 38208 ft | 470 kts | 271° |
| 2026-05-05 09:02 | 52.50034 | -14.96828 | 38215 ft | 470 kts | 271° |
| 2026-05-05 09:03 | 52.50063 | -15.07555 | 38213 ft | 470 kts | 272° |
| 2026-05-05 09:03 | 52.50316 | -15.18195 | 38220 ft | 470 kts | 273° |
| 2026-05-05 09:04 | 52.50563 | -15.28897 | 38228 ft | 470 kts | 273° |
| 2026-05-05 09:04 | 52.50770 | -15.39615 | 38232 ft | 470 kts | 272° |
| 2026-05-05 09:05 | 52.50956 | -15.50335 | 38233 ft | 470 kts | 272° |
| 2026-05-05 09:05 | 52.51130 | -15.60985 | 38238 ft | 470 kts | 272° |
| 2026-05-05 09:06 | 52.51296 | -15.71708 | 38229 ft | 470 kts | 272° |
| 2026-05-05 09:06 | 52.51452 | -15.82431 | 38236 ft | 470 kts | 272° |
| 2026-05-05 09:07 | 52.51599 | -15.93143 | 38234 ft | 470 kts | 272° |
| 2026-05-05 09:07 | 52.51735 | -16.03795 | 38226 ft | 470 kts | 272° |
| 2026-05-05 09:08 | 52.51862 | -16.14519 | 38222 ft | 470 kts | 272° |
| 2026-05-05 09:08 | 52.51980 | -16.25238 | 38219 ft | 470 kts | 272° |
| 2026-05-05 09:09 | 52.52088 | -16.35966 | 38216 ft | 470 kts | 272° |
| 2026-05-05 09:09 | 52.52186 | -16.46698 | 38223 ft | 470 kts | 271° |
| 2026-05-05 09:10 | 52.52274 | -16.57364 | 38239 ft | 470 kts | 271° |
| 2026-05-05 09:10 | 52.52353 | -16.68105 | 38226 ft | 470 kts | 271° |
| 2026-05-05 09:11 | 52.52422 | -16.78844 | 38230 ft | 470 kts | 271° |
| 2026-05-05 09:11 | 52.52482 | -16.89586 | 38241 ft | 470 kts | 271° |
| 2026-05-05 09:12 | 52.52531 | -17.00250 | 38247 ft | 471 kts | 271° |
| 2026-05-05 09:12 | 52.52571 | -17.10999 | 38252 ft | 471 kts | 271° |
| 2026-05-05 09:13 | 52.52602 | -17.21748 | 38238 ft | 471 kts | 271° |
| 2026-05-05 09:13 | 52.52623 | -17.32489 | 38251 ft | 470 kts | 271° |
| 2026-05-05 09:14 | 52.52633 | -17.43153 | 38246 ft | 470 kts | 271° |
| 2026-05-05 09:14 | 52.52635 | -17.53890 | 38251 ft | 470 kts | 271° |
| 2026-05-05 09:15 | 52.52627 | -17.64614 | 38267 ft | 470 kts | 270° |
| 2026-05-05 09:15 | 52.52608 | -17.75349 | 38253 ft | 470 kts | 270° |
| 2026-05-05 09:16 | 52.52581 | -17.86087 | 38256 ft | 470 kts | 270° |
| 2026-05-05 09:16 | 52.52543 | -17.96828 | 38258 ft | 470 kts | 270° |
| 2026-05-05 09:17 | 52.52496 | -18.07504 | 38267 ft | 471 kts | 270° |
| 2026-05-05 09:17 | 52.52439 | -18.18259 | 38266 ft | 471 kts | 270° |
| 2026-05-05 09:18 | 52.52372 | -18.29017 | 38271 ft | 471 kts | 270° |
| 2026-05-05 09:18 | 52.52296 | -18.39772 | 38271 ft | 471 kts | 270° |
| 2026-05-05 09:19 | 52.52210 | -18.50442 | 38274 ft | 471 kts | 270° |
| 2026-05-05 09:19 | 52.52114 | -18.61196 | 38282 ft | 471 kts | 270° |
| 2026-05-05 09:20 | 52.52009 | -18.71948 | 38284 ft | 471 kts | 270° |
| 2026-05-05 09:20 | 52.51893 | -18.82692 | 38281 ft | 470 kts | 270° |
| 2026-05-05 09:21 | 52.51769 | -18.93348 | 38283 ft | 470 kts | 270° |
| 2026-05-05 09:21 | 52.51635 | -19.04063 | 38278 ft | 470 kts | 269° |
| 2026-05-05 09:22 | 52.51491 | -19.14783 | 38286 ft | 470 kts | 269° |
| 2026-05-05 09:22 | 52.51337 | -19.25502 | 38285 ft | 470 kts | 269° |
| 2026-05-05 09:23 | 52.51174 | -19.36220 | 38281 ft | 470 kts | 269° |
| 2026-05-05 09:23 | 52.51002 | -19.46867 | 38288 ft | 470 kts | 269° |
| 2026-05-05 09:24 | 52.50819 | -19.57578 | 38290 ft | 470 kts | 269° |
| 2026-05-05 09:24 | 52.50627 | -19.68308 | 38295 ft | 470 kts | 269° |
| 2026-05-05 09:25 | 52.50424 | -19.79036 | 38305 ft | 471 kts | 269° |
| 2026-05-05 09:25 | 52.50218 | -19.89697 | 38308 ft | 470 kts | 269° |
| 2026-05-05 09:26 | 52.50005 | -20.00427 | 38302 ft | 470 kts | 269° |
| 2026-05-05 09:26 | 52.50271 | -20.11126 | 38305 ft | 469 kts | 276° |
| 2026-05-05 09:27 | 52.50829 | -20.21797 | 38313 ft | 469 kts | 275° |
| 2026-05-05 09:27 | 52.51303 | -20.32488 | 38306 ft | 470 kts | 275° |
| 2026-05-05 09:28 | 52.51730 | -20.43099 | 38309 ft | 469 kts | 275° |
| 2026-05-05 09:28 | 52.52146 | -20.53789 | 38309 ft | 469 kts | 275° |
| 2026-05-05 09:29 | 52.52549 | -20.64477 | 38304 ft | 469 kts | 275° |
| 2026-05-05 09:29 | 52.52938 | -20.75160 | 38301 ft | 469 kts | 274° |
| 2026-05-05 09:30 | 52.53316 | -20.85852 | 38309 ft | 469 kts | 274° |
| 2026-05-05 09:30 | 52.53683 | -20.96476 | 38311 ft | 469 kts | 274° |
| 2026-05-05 09:31 | 52.54042 | -21.07175 | 38315 ft | 469 kts | 274° |
| 2026-05-05 09:31 | 52.54392 | -21.17879 | 38311 ft | 469 kts | 274° |
| 2026-05-05 09:32 | 52.54733 | -21.28586 | 38315 ft | 469 kts | 274° |
| 2026-05-05 09:32 | 52.55061 | -21.39216 | 38312 ft | 470 kts | 274° |
| 2026-05-05 09:33 | 52.55382 | -21.49932 | 38315 ft | 469 kts | 274° |
| 2026-05-05 09:33 | 52.55693 | -21.60639 | 38316 ft | 469 kts | 274° |
| 2026-05-05 09:34 | 52.55993 | -21.71272 | 38315 ft | 469 kts | 274° |
| 2026-05-05 09:34 | 52.56285 | -21.81977 | 38315 ft | 469 kts | 274° |
| 2026-05-05 09:35 | 52.56567 | -21.92683 | 38315 ft | 469 kts | 274° |
| 2026-05-05 09:35 | 52.56972 | -22.08726 | 38320 ft | 468 kts | 274° |
| 2026-05-05 09:36 | 52.57228 | -22.19352 | 38320 ft | 468 kts | 274° |
| 2026-05-05 09:36 | 52.57476 | -22.30048 | 38314 ft | 468 kts | 274° |
| 2026-05-05 09:37 | 52.57715 | -22.40739 | 38323 ft | 468 kts | 274° |
| 2026-05-05 09:37 | 52.57944 | -22.51438 | 38317 ft | 468 kts | 273° |
| 2026-05-05 09:38 | 52.58163 | -22.62137 | 38319 ft | 468 kts | 274° |
| 2026-05-05 09:38 | 52.58371 | -22.72749 | 38317 ft | 468 kts | 274° |
| 2026-05-05 09:39 | 52.58571 | -22.83446 | 38336 ft | 468 kts | 274° |
| 2026-05-05 09:39 | 52.58761 | -22.94145 | 38330 ft | 468 kts | 273° |
| 2026-05-05 09:40 | 52.58942 | -23.04835 | 38325 ft | 468 kts | 273° |
| 2026-05-05 09:40 | 52.59111 | -23.15464 | 38331 ft | 468 kts | 274° |
| 2026-05-05 09:41 | 52.59273 | -23.26163 | 38331 ft | 468 kts | 273° |
| 2026-05-05 09:41 | 52.59425 | -23.36864 | 38332 ft | 468 kts | 273° |
| 2026-05-05 09:42 | 52.59567 | -23.47566 | 38334 ft | 468 kts | 273° |
| 2026-05-05 09:42 | 52.59699 | -23.58197 | 38329 ft | 468 kts | 273° |
| 2026-05-05 09:43 | 52.59822 | -23.68888 | 38336 ft | 467 kts | 273° |
| 2026-05-05 09:43 | 52.59935 | -23.79593 | 38329 ft | 468 kts | 273° |
| 2026-05-05 09:44 | 52.60039 | -23.90286 | 38333 ft | 468 kts | 273° |
| 2026-05-05 09:44 | 52.60133 | -24.00997 | 38331 ft | 468 kts | 273° |
| 2026-05-05 09:45 | 52.60217 | -24.11641 | 38335 ft | 468 kts | 273° |
| 2026-05-05 09:45 | 52.60292 | -24.22366 | 38324 ft | 468 kts | 273° |
| 2026-05-05 09:46 | 52.60357 | -24.33067 | 38337 ft | 468 kts | 273° |
| 2026-05-05 09:46 | 52.60413 | -24.43784 | 38339 ft | 469 kts | 273° |
| 2026-05-05 09:47 | 52.60458 | -24.54434 | 38341 ft | 469 kts | 273° |
| 2026-05-05 09:47 | 52.60495 | -24.65157 | 38347 ft | 469 kts | 272° |
| 2026-05-05 09:48 | 52.60521 | -24.75881 | 38321 ft | 469 kts | 272° |
| 2026-05-05 09:48 | 52.60538 | -24.86592 | 38346 ft | 468 kts | 272° |
| 2026-05-05 09:49 | 52.60545 | -24.97290 | 38346 ft | 468 kts | 272° |
| 2026-05-05 09:49 | 52.60543 | -25.07932 | 38346 ft | 468 kts | 272° |
| 2026-05-05 09:50 | 52.60531 | -25.18648 | 38347 ft | 468 kts | 272° |
| 2026-05-05 09:50 | 52.60509 | -25.29369 | 38344 ft | 469 kts | 272° |
| 2026-05-05 09:51 | 52.60478 | -25.40081 | 38353 ft | 468 kts | 272° |
| 2026-05-05 09:51 | 52.60437 | -25.50716 | 38351 ft | 468 kts | 272° |
| 2026-05-05 09:52 | 52.60387 | -25.61407 | 38349 ft | 468 kts | 272° |
| 2026-05-05 09:52 | 52.60327 | -25.72105 | 38351 ft | 467 kts | 272° |
| 2026-05-05 09:53 | 52.60257 | -25.82797 | 38349 ft | 467 kts | 272° |
| 2026-05-05 09:53 | 52.60178 | -25.93406 | 38358 ft | 466 kts | 272° |
| 2026-05-05 09:54 | 52.60089 | -26.04069 | 38354 ft | 466 kts | 272° |
| 2026-05-05 09:54 | 52.59991 | -26.14715 | 38345 ft | 466 kts | 272° |
| 2026-05-05 09:55 | 52.59883 | -26.25372 | 38344 ft | 466 kts | 272° |
| 2026-05-05 09:55 | 52.59766 | -26.36030 | 38349 ft | 466 kts | 272° |
| 2026-05-05 09:56 | 52.59640 | -26.46623 | 38348 ft | 466 kts | 272° |
| 2026-05-05 09:56 | 52.59504 | -26.57292 | 38353 ft | 467 kts | 272° |
| 2026-05-05 09:57 | 52.59357 | -26.67969 | 38356 ft | 467 kts | 272° |
| 2026-05-05 09:57 | 52.59201 | -26.78640 | 38357 ft | 467 kts | 272° |
| 2026-05-05 09:58 | 52.59036 | -26.89328 | 38361 ft | 468 kts | 271° |
| 2026-05-05 09:58 | 52.58860 | -27.00013 | 38384 ft | 466 kts | 272° |
| 2026-05-05 09:59 | 52.58677 | -27.10605 | 38373 ft | 466 kts | 271° |
| 2026-05-05 09:59 | 52.58483 | -27.21256 | 38369 ft | 466 kts | 271° |
| 2026-05-05 10:00 | 52.58280 | -27.31892 | 38361 ft | 465 kts | 271° |
| 2026-05-05 10:00 | 52.58068 | -27.42518 | 38358 ft | 465 kts | 271° |
| 2026-05-05 10:01 | 52.57846 | -27.53127 | 38352 ft | 464 kts | 271° |
| 2026-05-05 10:01 | 52.57616 | -27.63655 | 38364 ft | 464 kts | 271° |
| 2026-05-05 10:02 | 52.57376 | -27.74244 | 38364 ft | 463 kts | 271° |
| 2026-05-05 10:02 | 52.57127 | -27.84825 | 38359 ft | 463 kts | 271° |
| 2026-05-05 10:03 | 52.56868 | -27.95400 | 38358 ft | 463 kts | 271° |
| 2026-05-05 10:03 | 52.56602 | -28.05899 | 38324 ft | 463 kts | 271° |
| 2026-05-05 10:04 | 52.56326 | -28.16432 | 38380 ft | 461 kts | 271° |
| 2026-05-05 10:04 | 52.56040 | -28.26962 | 38371 ft | 461 kts | 271° |
| 2026-05-05 10:05 | 52.55745 | -28.37478 | 38364 ft | 460 kts | 271° |
| 2026-05-05 10:05 | 52.55444 | -28.47910 | 38354 ft | 460 kts | 271° |
| 2026-05-05 10:06 | 52.55131 | -28.58400 | 38359 ft | 459 kts | 271° |
| 2026-05-05 10:06 | 52.54810 | -28.68866 | 38362 ft | 458 kts | 271° |
| 2026-05-05 10:07 | 52.54480 | -28.79307 | 38360 ft | 458 kts | 271° |
| 2026-05-05 10:07 | 52.54142 | -28.89754 | 38356 ft | 458 kts | 271° |
| 2026-05-05 10:08 | 52.53796 | -29.00127 | 38356 ft | 458 kts | 271° |
| 2026-05-05 10:08 | 52.53439 | -29.10567 | 38357 ft | 458 kts | 271° |
| 2026-05-05 10:09 | 52.53072 | -29.20993 | 38380 ft | 456 kts | 271° |
| 2026-05-05 10:09 | 52.52698 | -29.31397 | 38369 ft | 456 kts | 271° |
| 2026-05-05 10:10 | 52.52318 | -29.41707 | 38349 ft | 456 kts | 270° |
| 2026-05-05 10:10 | 52.51926 | -29.52083 | 38348 ft | 455 kts | 270° |
| 2026-05-05 10:11 | 52.51529 | -29.62446 | 38331 ft | 455 kts | 270° |
| 2026-05-05 10:11 | 52.51127 | -29.72807 | 38340 ft | 454 kts | 270° |
| 2026-05-05 10:12 | 52.50721 | -29.83086 | 38350 ft | 454 kts | 270° |
| 2026-05-05 10:12 | 52.50304 | -29.93440 | 38350 ft | 455 kts | 270° |
| 2026-05-05 10:13 | 52.49813 | -30.03792 | 38350 ft | 456 kts | 268° |
| 2026-05-05 10:13 | 52.49143 | -30.14126 | 38350 ft | 455 kts | 269° |
| 2026-05-05 10:14 | 52.48561 | -30.24469 | 38312 ft | 455 kts | 269° |
| 2026-05-05 10:14 | 52.47977 | -30.34718 | 38361 ft | 454 kts | 269° |
| 2026-05-05 10:15 | 52.47375 | -30.45020 | 38358 ft | 453 kts | 268° |
| 2026-05-05 10:15 | 52.46763 | -30.55306 | 38349 ft | 453 kts | 268° |
| 2026-05-05 10:16 | 52.46139 | -30.65573 | 38345 ft | 452 kts | 268° |
| 2026-05-05 10:16 | 52.45508 | -30.75746 | 38337 ft | 452 kts | 268° |
| 2026-05-05 10:17 | 52.44864 | -30.85973 | 38349 ft | 450 kts | 268° |
| 2026-05-05 10:17 | 52.44212 | -30.96185 | 38341 ft | 450 kts | 268° |
| 2026-05-05 10:18 | 52.43552 | -31.06385 | 38340 ft | 450 kts | 268° |
| 2026-05-05 10:18 | 52.42883 | -31.16575 | 38333 ft | 450 kts | 268° |
| 2026-05-05 10:19 | 52.42212 | -31.26675 | 38330 ft | 449 kts | 267° |
| 2026-05-05 10:19 | 52.41527 | -31.36844 | 38332 ft | 448 kts | 267° |
| 2026-05-05 10:20 | 52.40834 | -31.46993 | 38326 ft | 448 kts | 267° |
| 2026-05-05 10:20 | 52.40133 | -31.57135 | 38325 ft | 448 kts | 267° |
| 2026-05-05 10:21 | 52.39428 | -31.67204 | 38323 ft | 448 kts | 267° |
| 2026-05-05 10:21 | 52.38710 | -31.77337 | 38324 ft | 448 kts | 267° |
| 2026-05-05 10:22 | 52.37984 | -31.87456 | 38320 ft | 448 kts | 266° |
| 2026-05-05 10:22 | 52.37248 | -31.97589 | 38314 ft | 448 kts | 266° |
| 2026-05-05 10:23 | 52.36508 | -32.07651 | 38316 ft | 448 kts | 266° |
| 2026-05-05 10:23 | 52.35755 | -32.17786 | 38308 ft | 449 kts | 266° |
| 2026-05-05 10:24 | 52.34992 | -32.27914 | 38313 ft | 449 kts | 266° |
| 2026-05-05 10:24 | 52.34220 | -32.38055 | 38312 ft | 449 kts | 266° |
| 2026-05-05 10:25 | 52.33451 | -32.48109 | 38325 ft | 448 kts | 265° |
| 2026-05-05 10:25 | 52.32670 | -32.58213 | 38312 ft | 448 kts | 265° |
| 2026-05-05 10:26 | 52.31867 | -32.68305 | 38306 ft | 447 kts | 265° |
| 2026-05-05 10:26 | 52.31060 | -32.78387 | 38306 ft | 447 kts | 265° |
| 2026-05-05 10:27 | 52.30249 | -32.88447 | 38300 ft | 447 kts | 265° |
| 2026-05-05 10:27 | 52.29440 | -32.98435 | 38299 ft | 446 kts | 264° |
| 2026-05-05 10:28 | 52.28618 | -33.08467 | 38277 ft | 446 kts | 264° |
| 2026-05-05 10:28 | 52.27779 | -33.18489 | 38293 ft | 445 kts | 264° |
| 2026-05-05 10:29 | 52.26936 | -33.28499 | 38283 ft | 445 kts | 264° |
| 2026-05-05 10:29 | 52.26092 | -33.38433 | 38274 ft | 446 kts | 263° |
| 2026-05-05 10:30 | 52.25233 | -33.48455 | 38250 ft | 446 kts | 263° |
| 2026-05-05 10:30 | 52.24362 | -33.58506 | 38255 ft | 448 kts | 263° |
| 2026-05-05 10:31 | 52.23477 | -33.68592 | 38264 ft | 450 kts | 262° |
| 2026-05-05 10:31 | 52.22588 | -33.78647 | 38280 ft | 452 kts | 262° |
| 2026-05-05 10:32 | 52.21682 | -33.88791 | 38277 ft | 452 kts | 262° |
| 2026-05-05 10:32 | 52.20767 | -33.98933 | 38271 ft | 453 kts | 262° |
| 2026-05-05 10:33 | 52.19840 | -34.09099 | 38254 ft | 454 kts | 262° |
| 2026-05-05 10:33 | 52.18906 | -34.19274 | 38258 ft | 454 kts | 262° |
| 2026-05-05 10:34 | 52.17965 | -34.29389 | 38255 ft | 455 kts | 261° |
| 2026-05-05 10:34 | 52.17008 | -34.39577 | 38259 ft | 455 kts | 261° |
| 2026-05-05 10:35 | 52.16043 | -34.49765 | 38261 ft | 455 kts | 261° |
| 2026-05-05 10:35 | 52.15069 | -34.59948 | 38221 ft | 456 kts | 260° |
| 2026-05-05 10:36 | 52.14084 | -34.70157 | 38221 ft | 457 kts | 260° |
| 2026-05-05 10:36 | 52.13094 | -34.80317 | 38234 ft | 458 kts | 260° |
| 2026-05-05 10:37 | 52.12086 | -34.90563 | 38226 ft | 459 kts | 260° |
| 2026-05-05 10:37 | 52.11067 | -35.00826 | 38220 ft | 460 kts | 260° |
| 2026-05-05 10:38 | 52.10037 | -35.11098 | 38222 ft | 460 kts | 259° |
| 2026-05-05 10:38 | 52.09002 | -35.21350 | 38212 ft | 460 kts | 259° |
| 2026-05-05 10:39 | 52.07963 | -35.31535 | 38212 ft | 460 kts | 258° |
| 2026-05-05 10:39 | 52.06908 | -35.41784 | 38203 ft | 460 kts | 258° |
| 2026-05-05 10:40 | 52.05840 | -35.52066 | 38234 ft | 463 kts | 258° |
| 2026-05-05 10:40 | 52.04759 | -35.62393 | 38224 ft | 463 kts | 258° |
| 2026-05-05 10:41 | 52.03679 | -35.72617 | 38211 ft | 461 kts | 258° |
| 2026-05-05 10:41 | 52.02585 | -35.82879 | 38173 ft | 461 kts | 257° |
| 2026-05-05 10:42 | 52.00929 | -35.98246 | 38152 ft | 460 kts | 257° |
| 2026-05-05 10:43 | 51.99823 | -36.08399 | 38156 ft | 460 kts | 257° |
| 2026-05-05 10:43 | 51.98702 | -36.18608 | 38130 ft | 460 kts | 256° |
| 2026-05-05 10:44 | 51.97570 | -36.28832 | 38134 ft | 461 kts | 256° |
| 2026-05-05 10:44 | 51.96426 | -36.39073 | 38141 ft | 462 kts | 256° |
| 2026-05-05 10:45 | 51.95269 | -36.49350 | 38146 ft | 464 kts | 256° |
| 2026-05-05 10:45 | 51.94106 | -36.59596 | 38204 ft | 466 kts | 256° |
| 2026-05-05 10:46 | 51.92925 | -36.69924 | 38153 ft | 466 kts | 256° |
| 2026-05-05 10:46 | 51.91938 | -36.78482 | 38145 ft | 465 kts | 256° |
| 2026-05-05 10:47 | 51.90745 | -36.88761 | 38138 ft | 464 kts | 256° |
| 2026-05-05 10:47 | 51.89347 | -37.00691 | 38100 ft | 464 kts | 256° |
| 2026-05-05 10:48 | 51.88134 | -37.10959 | 38101 ft | 464 kts | 256° |
| 2026-05-05 10:48 | 51.87119 | -37.19484 | 38103 ft | 465 kts | 256° |
| 2026-05-05 10:49 | 51.85887 | -37.29758 | 38105 ft | 466 kts | 256° |
| 2026-05-05 10:49 | 51.84440 | -37.41726 | 38106 ft | 467 kts | 256° |
| 2026-05-05 10:50 | 51.83183 | -37.52038 | 38122 ft | 468 kts | 255° |
| 2026-05-05 10:50 | 51.82130 | -37.60619 | 38103 ft | 468 kts | 255° |
| 2026-05-05 10:51 | 51.80853 | -37.70946 | 38116 ft | 469 kts | 255° |
| 2026-05-05 10:51 | 51.79569 | -37.81255 | 38119 ft | 468 kts | 255° |
| 2026-05-05 10:52 | 51.78276 | -37.91556 | 38100 ft | 467 kts | 255° |
| 2026-05-05 10:52 | 51.76985 | -38.01766 | 38097 ft | 467 kts | 255° |
| 2026-05-05 10:53 | 51.75677 | -38.12027 | 38100 ft | 466 kts | 255° |
| 2026-05-05 10:53 | 51.74359 | -38.22297 | 38079 ft | 468 kts | 255° |
| 2026-05-05 10:54 | 51.73041 | -38.32492 | 38087 ft | 467 kts | 255° |
| 2026-05-05 10:54 | 51.71706 | -38.42739 | 38082 ft | 467 kts | 255° |
| 2026-05-05 10:55 | 51.70360 | -38.52999 | 38096 ft | 468 kts | 255° |
| 2026-05-05 10:55 | 51.69003 | -38.63268 | 38097 ft | 469 kts | 255° |
| 2026-05-05 10:56 | 51.67645 | -38.73469 | 38114 ft | 468 kts | 255° |
| 2026-05-05 10:56 | 51.66271 | -38.83722 | 38106 ft | 468 kts | 255° |
| 2026-05-05 10:57 | 51.64890 | -38.93957 | 38113 ft | 467 kts | 254° |
| 2026-05-05 10:57 | 51.63502 | -39.04164 | 38112 ft | 467 kts | 254° |
| 2026-05-05 10:58 | 51.62105 | -39.14368 | 38107 ft | 467 kts | 254° |
| 2026-05-05 10:58 | 51.60708 | -39.24499 | 38104 ft | 467 kts | 254° |
| 2026-05-05 10:59 | 51.59293 | -39.34693 | 38080 ft | 468 kts | 254° |
| 2026-05-05 10:59 | 51.57865 | -39.44911 | 38090 ft | 469 kts | 254° |
| 2026-05-05 11:00 | 51.56427 | -39.55130 | 38101 ft | 470 kts | 254° |
| 2026-05-05 11:00 | 51.54991 | -39.65301 | 38132 ft | 471 kts | 254° |
| 2026-05-05 11:01 | 51.53536 | -39.75562 | 38129 ft | 471 kts | 254° |
| 2026-05-05 11:01 | 51.52074 | -39.85812 | 38119 ft | 471 kts | 254° |
| 2026-05-05 11:02 | 51.50602 | -39.96056 | 38119 ft | 471 kts | 253° |
| 2026-05-05 11:02 | 51.49058 | -40.06182 | 38118 ft | 470 kts | 252° |
| 2026-05-05 11:03 | 51.47473 | -40.16353 | 38138 ft | 470 kts | 253° |
| 2026-05-05 11:03 | 51.45945 | -40.26532 | 38131 ft | 469 kts | 253° |
| 2026-05-05 11:04 | 51.44407 | -40.36681 | 38122 ft | 468 kts | 253° |
| 2026-05-05 11:04 | 51.42859 | -40.46801 | 38112 ft | 467 kts | 253° |
| 2026-05-05 11:05 | 51.41305 | -40.56888 | 38110 ft | 466 kts | 253° |
| 2026-05-05 11:05 | 51.39749 | -40.66896 | 38121 ft | 466 kts | 253° |
| 2026-05-05 11:06 | 51.38173 | -40.76945 | 38116 ft | 465 kts | 253° |
| 2026-05-05 11:06 | 51.36590 | -40.86972 | 38110 ft | 464 kts | 253° |
| 2026-05-05 11:07 | 51.35001 | -40.96976 | 38098 ft | 464 kts | 253° |
| 2026-05-05 11:07 | 51.33418 | -41.06886 | 38103 ft | 463 kts | 253° |
| 2026-05-05 11:08 | 51.31814 | -41.16864 | 38114 ft | 463 kts | 252° |
| 2026-05-05 11:08 | 51.30202 | -41.26833 | 38111 ft | 463 kts | 252° |
| 2026-05-05 11:09 | 51.28583 | -41.36788 | 38107 ft | 463 kts | 252° |
| 2026-05-05 11:09 | 51.26967 | -41.46664 | 38107 ft | 463 kts | 252° |
| 2026-05-05 11:10 | 51.25332 | -41.56598 | 38110 ft | 463 kts | 252° |
| 2026-05-05 11:10 | 51.23689 | -41.66524 | 38082 ft | 464 kts | 252° |
| 2026-05-05 11:11 | 51.22034 | -41.76467 | 38096 ft | 464 kts | 252° |
| 2026-05-05 11:11 | 51.20370 | -41.86403 | 38112 ft | 464 kts | 252° |
| 2026-05-05 11:12 | 51.18708 | -41.96267 | 38114 ft | 464 kts | 252° |
| 2026-05-05 11:12 | 51.17027 | -42.06192 | 38118 ft | 464 kts | 252° |
| 2026-05-05 11:13 | 51.15337 | -42.16111 | 38113 ft | 464 kts | 252° |
| 2026-05-05 11:13 | 51.13650 | -42.25957 | 38106 ft | 464 kts | 252° |
| 2026-05-05 11:14 | 51.11946 | -42.35849 | 38106 ft | 464 kts | 251° |
| 2026-05-05 11:14 | 51.10232 | -42.45744 | 38105 ft | 464 kts | 251° |
| 2026-05-05 11:15 | 51.08509 | -42.55630 | 38097 ft | 464 kts | 251° |
| 2026-05-05 11:15 | 51.06779 | -42.65505 | 38091 ft | 463 kts | 251° |
| 2026-05-05 11:16 | 51.05042 | -42.75363 | 38089 ft | 463 kts | 251° |
| 2026-05-05 11:16 | 51.03309 | -42.85147 | 38076 ft | 464 kts | 251° |
| 2026-05-05 11:17 | 51.01554 | -42.94996 | 38073 ft | 464 kts | 251° |
| 2026-05-05 11:17 | 50.99788 | -43.04857 | 38069 ft | 464 kts | 251° |
| 2026-05-05 11:18 | 50.98011 | -43.14720 | 38084 ft | 465 kts | 251° |
| 2026-05-05 11:18 | 50.96238 | -43.24513 | 38080 ft | 465 kts | 251° |
| 2026-05-05 11:19 | 50.94446 | -43.34359 | 38080 ft | 464 kts | 251° |
| 2026-05-05 11:19 | 50.92646 | -43.44193 | 38076 ft | 464 kts | 251° |
| 2026-05-05 11:20 | 50.90841 | -43.54005 | 38069 ft | 464 kts | 251° |
| 2026-05-05 11:20 | 50.89027 | -43.63812 | 38081 ft | 463 kts | 251° |
| 2026-05-05 11:21 | 50.87220 | -43.73526 | 38072 ft | 462 kts | 251° |
| 2026-05-05 11:21 | 50.85398 | -43.83273 | 38065 ft | 462 kts | 251° |
| 2026-05-05 11:22 | 50.83570 | -43.93004 | 38088 ft | 461 kts | 250° |
| 2026-05-05 11:22 | 50.81730 | -44.02739 | 38028 ft | 462 kts | 250° |
| 2026-05-05 11:23 | 50.79896 | -44.12400 | 38054 ft | 461 kts | 250° |
| 2026-05-05 11:23 | 50.78044 | -44.22103 | 38046 ft | 461 kts | 250° |
| 2026-05-05 11:24 | 50.76186 | -44.31787 | 38042 ft | 460 kts | 250° |
| 2026-05-05 11:24 | 50.74322 | -44.41457 | 38028 ft | 460 kts | 250° |
| 2026-05-05 11:25 | 50.72464 | -44.51044 | 38031 ft | 460 kts | 250° |
| 2026-05-05 11:25 | 50.70586 | -44.60686 | 38051 ft | 459 kts | 250° |
| 2026-05-05 11:26 | 50.68704 | -44.70301 | 38039 ft | 458 kts | 250° |
| 2026-05-05 11:26 | 50.66818 | -44.79889 | 38039 ft | 457 kts | 249° |
| 2026-05-05 11:27 | 50.64939 | -44.89392 | 38024 ft | 457 kts | 249° |
| 2026-05-05 11:27 | 50.63042 | -44.98940 | 38034 ft | 456 kts | 249° |
| 2026-05-05 11:28 | 50.61139 | -45.08467 | 37998 ft | 457 kts | 249° |
| 2026-05-05 11:28 | 50.59225 | -45.18009 | 38003 ft | 457 kts | 249° |
| 2026-05-05 11:29 | 50.57301 | -45.27548 | 37991 ft | 458 kts | 249° |
| 2026-05-05 11:29 | 50.55381 | -45.37026 | 37996 ft | 458 kts | 249° |
| 2026-05-05 11:30 | 50.53438 | -45.46572 | 38009 ft | 459 kts | 249° |
| 2026-05-05 11:30 | 50.51485 | -45.56119 | 38008 ft | 459 kts | 249° |
| 2026-05-05 11:31 | 50.49537 | -45.65595 | 38010 ft | 459 kts | 249° |
| 2026-05-05 11:31 | 50.47571 | -45.75116 | 37998 ft | 459 kts | 249° |
| 2026-05-05 11:32 | 50.45596 | -45.84634 | 37993 ft | 458 kts | 248° |
| 2026-05-05 11:32 | 50.43614 | -45.94139 | 37996 ft | 458 kts | 248° |
| 2026-05-05 11:33 | 50.41638 | -46.03569 | 37988 ft | 458 kts | 248° |
| 2026-05-05 11:33 | 50.39647 | -46.13029 | 37985 ft | 458 kts | 248° |
| 2026-05-05 11:34 | 50.37643 | -46.22507 | 37960 ft | 459 kts | 248° |
| 2026-05-05 11:34 | 50.35630 | -46.31979 | 37962 ft | 459 kts | 248° |
| 2026-05-05 11:35 | 50.33606 | -46.41461 | 37958 ft | 459 kts | 248° |
| 2026-05-05 11:35 | 50.31586 | -46.50884 | 37964 ft | 460 kts | 248° |
| 2026-05-05 11:36 | 50.29541 | -46.60372 | 37960 ft | 460 kts | 248° |
| 2026-05-05 11:36 | 50.27488 | -46.69861 | 37964 ft | 461 kts | 248° |
| 2026-05-05 11:37 | 50.25425 | -46.79348 | 37961 ft | 461 kts | 248° |
| 2026-05-05 11:37 | 50.23356 | -46.88818 | 37963 ft | 461 kts | 248° |
| 2026-05-05 11:38 | 50.21292 | -46.98226 | 37960 ft | 461 kts | 248° |
| 2026-05-05 11:38 | 50.19206 | -47.07687 | 37945 ft | 461 kts | 248° |
| 2026-05-05 11:39 | 50.17114 | -47.17136 | 37946 ft | 461 kts | 248° |
| 2026-05-05 11:39 | 50.15027 | -47.26515 | 37919 ft | 461 kts | 248° |
| 2026-05-05 11:40 | 50.12916 | -47.35961 | 37935 ft | 461 kts | 248° |
| 2026-05-05 11:40 | 50.10799 | -47.45393 | 37919 ft | 462 kts | 248° |
| 2026-05-05 11:41 | 50.08671 | -47.54833 | 37928 ft | 462 kts | 248° |
| 2026-05-05 11:41 | 50.06534 | -47.64268 | 37922 ft | 462 kts | 248° |
| 2026-05-05 11:42 | 50.04403 | -47.73636 | 37937 ft | 462 kts | 248° |
| 2026-05-05 11:42 | 50.02248 | -47.83065 | 37923 ft | 463 kts | 248° |
| 2026-05-05 11:43 | 50.00086 | -47.92485 | 37918 ft | 463 kts | 248° |
| 2026-05-05 11:43 | 49.97919 | -48.01885 | 37913 ft | 462 kts | 248° |
| 2026-05-05 11:44 | 49.95742 | -48.11286 | 37912 ft | 462 kts | 247° |
| 2026-05-05 11:44 | 49.93573 | -48.20611 | 37912 ft | 462 kts | 248° |
| 2026-05-05 11:45 | 49.91384 | -48.29985 | 37931 ft | 462 kts | 248° |
| 2026-05-05 11:45 | 49.89185 | -48.39356 | 37889 ft | 463 kts | 247° |
| 2026-05-05 11:46 | 49.86976 | -48.48731 | 37891 ft | 463 kts | 247° |
| 2026-05-05 11:46 | 49.84773 | -48.58039 | 37891 ft | 463 kts | 247° |
| 2026-05-05 11:47 | 49.82547 | -48.67404 | 37890 ft | 463 kts | 248° |
| 2026-05-05 11:47 | 49.80313 | -48.76766 | 37881 ft | 464 kts | 247° |
| 2026-05-05 11:48 | 49.76960 | -48.90737 | 37888 ft | 464 kts | 247° |
| 2026-05-05 11:48 | 49.74708 | -49.00075 | 37888 ft | 464 kts | 247° |
| 2026-05-05 11:49 | 49.72445 | -49.09414 | 37887 ft | 464 kts | 247° |
| 2026-05-05 11:49 | 49.70175 | -49.18742 | 37880 ft | 464 kts | 247° |
| 2026-05-05 11:50 | 49.67914 | -49.27996 | 37871 ft | 463 kts | 247° |
| 2026-05-05 11:50 | 49.65630 | -49.37305 | 37850 ft | 464 kts | 247° |
| 2026-05-05 11:51 | 49.63337 | -49.46614 | 37860 ft | 464 kts | 247° |
| 2026-05-05 11:51 | 49.61038 | -49.55908 | 37853 ft | 464 kts | 247° |
| 2026-05-05 11:52 | 49.58747 | -49.65151 | 37853 ft | 465 kts | 247° |
| 2026-05-05 11:52 | 49.56434 | -49.74453 | 37868 ft | 465 kts | 247° |
| 2026-05-05 11:53 | 49.54114 | -49.83749 | 37869 ft | 465 kts | 247° |
| 2026-05-05 11:53 | 49.51786 | -49.93039 | 37875 ft | 465 kts | 247° |
| 2026-05-05 11:54 | 49.49474 | -50.02251 | 37864 ft | 465 kts | 247° |
| 2026-05-05 11:54 | 49.47180 | -50.11543 | 37863 ft | 465 kts | 248° |
| 2026-05-05 11:55 | 49.44971 | -50.20881 | 37846 ft | 465 kts | 248° |
| 2026-05-05 11:55 | 49.42734 | -50.30198 | 37843 ft | 465 kts | 248° |
| 2026-05-05 11:56 | 49.40491 | -50.39442 | 37835 ft | 465 kts | 248° |
| 2026-05-05 11:56 | 49.38225 | -50.48739 | 37838 ft | 465 kts | 248° |
| 2026-05-05 11:57 | 49.35946 | -50.58047 | 37839 ft | 466 kts | 248° |
| 2026-05-05 11:57 | 49.33664 | -50.67331 | 37842 ft | 466 kts | 248° |
| 2026-05-05 11:58 | 49.31371 | -50.76619 | 37829 ft | 466 kts | 248° |
| 2026-05-05 11:58 | 49.29070 | -50.85900 | 37830 ft | 466 kts | 248° |
| 2026-05-05 11:59 | 49.26778 | -50.95109 | 37830 ft | 466 kts | 248° |
| 2026-05-05 11:59 | 49.24464 | -51.04370 | 37832 ft | 466 kts | 248° |
| 2026-05-05 12:00 | 49.22142 | -51.13621 | 37824 ft | 466 kts | 248° |
| 2026-05-05 12:00 | 49.19814 | -51.22861 | 37825 ft | 465 kts | 248° |
| 2026-05-05 12:01 | 49.17496 | -51.32018 | 37820 ft | 465 kts | 248° |
| 2026-05-05 12:01 | 49.15154 | -51.41240 | 37824 ft | 465 kts | 248° |
| 2026-05-05 12:02 | 49.12803 | -51.50452 | 37811 ft | 465 kts | 248° |
| 2026-05-05 12:02 | 49.10446 | -51.59655 | 37815 ft | 465 kts | 248° |
| 2026-05-05 12:03 | 49.08081 | -51.68850 | 37808 ft | 465 kts | 248° |
| 2026-05-05 12:03 | 49.05726 | -51.77969 | 37816 ft | 465 kts | 248° |
| 2026-05-05 12:04 | 49.03352 | -51.87128 | 37823 ft | 465 kts | 248° |
| 2026-05-05 12:04 | 49.00969 | -51.96287 | 37823 ft | 465 kts | 248° |
| 2026-05-05 12:05 | 48.98554 | -52.05421 | 37817 ft | 465 kts | 247° |
| 2026-05-05 12:05 | 48.96091 | -52.14447 | 37823 ft | 465 kts | 247° |
| 2026-05-05 12:06 | 48.93639 | -52.23541 | 37833 ft | 464 kts | 247° |
| 2026-05-05 12:06 | 48.91194 | -52.32645 | 37808 ft | 465 kts | 247° |
| 2026-05-05 12:07 | 48.88744 | -52.41737 | 37814 ft | 465 kts | 247° |
| 2026-05-05 12:07 | 48.86283 | -52.50832 | 37814 ft | 465 kts | 247° |
| 2026-05-05 12:08 | 48.83831 | -52.59858 | 37821 ft | 465 kts | 247° |
| 2026-05-05 12:08 | 48.81357 | -52.68934 | 37808 ft | 465 kts | 247° |
| 2026-05-05 12:09 | 48.78875 | -52.78002 | 37815 ft | 465 kts | 247° |
| 2026-05-05 12:09 | 48.76385 | -52.87060 | 37812 ft | 465 kts | 247° |
| 2026-05-05 12:10 | 48.73903 | -52.96042 | 37802 ft | 465 kts | 247° |
| 2026-05-05 12:10 | 48.71397 | -53.05065 | 37794 ft | 464 kts | 247° |
| 2026-05-05 12:11 | 48.68888 | -53.14061 | 37796 ft | 464 kts | 247° |
| 2026-05-05 12:11 | 48.66370 | -53.23054 | 37811 ft | 464 kts | 247° |
| 2026-05-05 12:12 | 48.63843 | -53.32048 | 37790 ft | 465 kts | 247° |
| 2026-05-05 12:12 | 48.61326 | -53.40972 | 37779 ft | 464 kts | 247° |
| 2026-05-05 12:13 | 48.58785 | -53.49945 | 37779 ft | 465 kts | 247° |
| 2026-05-05 12:13 | 48.56237 | -53.58912 | 37779 ft | 465 kts | 247° |
| 2026-05-05 12:14 | 48.53682 | -53.67868 | 37779 ft | 464 kts | 247° |
| 2026-05-05 12:14 | 48.51141 | -53.76745 | 37765 ft | 464 kts | 247° |
| 2026-05-05 12:15 | 48.48574 | -53.85679 | 37770 ft | 464 kts | 247° |
| 2026-05-05 12:15 | 48.45999 | -53.94606 | 37773 ft | 464 kts | 247° |
| 2026-05-05 12:16 | 48.43417 | -54.03526 | 37778 ft | 465 kts | 246° |
| 2026-05-05 12:16 | 48.40826 | -54.12442 | 37778 ft | 465 kts | 246° |
| 2026-05-05 12:17 | 48.38246 | -54.21287 | 37786 ft | 465 kts | 247° |
| 2026-05-05 12:17 | 48.35640 | -54.30190 | 37788 ft | 465 kts | 247° |
| 2026-05-05 12:18 | 48.33028 | -54.39082 | 37797 ft | 465 kts | 246° |
| 2026-05-05 12:18 | 48.30410 | -54.47963 | 37798 ft | 465 kts | 246° |
| 2026-05-05 12:19 | 48.27802 | -54.56776 | 37799 ft | 465 kts | 246° |
| 2026-05-05 12:19 | 48.25172 | -54.65633 | 37806 ft | 464 kts | 246° |
| 2026-05-05 12:20 | 48.22540 | -54.74465 | 37819 ft | 464 kts | 246° |
| 2026-05-05 12:20 | 48.19898 | -54.83296 | 37821 ft | 464 kts | 246° |
| 2026-05-05 12:21 | 48.17250 | -54.92116 | 37789 ft | 464 kts | 246° |
| 2026-05-05 12:21 | 48.14614 | -55.00866 | 37798 ft | 464 kts | 246° |
| 2026-05-05 12:22 | 48.11956 | -55.09655 | 37779 ft | 464 kts | 246° |
| 2026-05-05 12:22 | 48.09292 | -55.18438 | 37790 ft | 463 kts | 246° |
| 2026-05-05 12:23 | 48.06621 | -55.27208 | 37763 ft | 463 kts | 246° |
| 2026-05-05 12:23 | 48.03963 | -55.35909 | 37764 ft | 463 kts | 246° |
| 2026-05-05 12:24 | 48.01284 | -55.44646 | 37766 ft | 463 kts | 246° |
| 2026-05-05 12:24 | 47.98595 | -55.53381 | 37769 ft | 463 kts | 246° |
| 2026-05-05 12:25 | 47.95902 | -55.62105 | 37763 ft | 463 kts | 246° |
| 2026-05-05 12:25 | 47.93202 | -55.70817 | 37762 ft | 463 kts | 246° |
| 2026-05-05 12:26 | 47.90514 | -55.79462 | 37785 ft | 462 kts | 246° |
| 2026-05-05 12:26 | 47.87804 | -55.88146 | 37777 ft | 462 kts | 246° |
| 2026-05-05 12:27 | 47.85092 | -55.96806 | 37773 ft | 462 kts | 246° |
| 2026-05-05 12:27 | 47.82369 | -56.05474 | 37763 ft | 462 kts | 246° |
| 2026-05-05 12:28 | 47.79639 | -56.14134 | 37768 ft | 462 kts | 246° |
| 2026-05-05 12:28 | 47.76922 | -56.22721 | 37767 ft | 462 kts | 246° |
| 2026-05-05 12:29 | 47.74183 | -56.31352 | 37784 ft | 462 kts | 246° |
| 2026-05-05 12:29 | 47.71437 | -56.39973 | 37810 ft | 462 kts | 246° |
| 2026-05-05 12:30 | 47.68685 | -56.48582 | 37807 ft | 461 kts | 246° |
| 2026-05-05 12:30 | 47.65949 | -56.57115 | 37844 ft | 461 kts | 246° |
| 2026-05-05 12:31 | 47.63187 | -56.65698 | 37836 ft | 461 kts | 246° |
| 2026-05-05 12:31 | 47.60421 | -56.74266 | 37861 ft | 461 kts | 246° |
| 2026-05-05 12:32 | 47.57650 | -56.82819 | 37869 ft | 460 kts | 246° |
| 2026-05-05 12:32 | 47.54893 | -56.91300 | 37883 ft | 460 kts | 246° |
| 2026-05-05 12:33 | 47.52118 | -56.99810 | 37879 ft | 459 kts | 246° |
| 2026-05-05 12:33 | 47.49333 | -57.08321 | 37898 ft | 459 kts | 246° |
| 2026-05-05 12:34 | 47.46603 | -57.16637 | 37905 ft | 459 kts | 246° |
| 2026-05-05 12:34 | 47.43816 | -57.25100 | 37903 ft | 459 kts | 246° |
| 2026-05-05 12:35 | 47.41038 | -57.33509 | 37906 ft | 458 kts | 246° |
| 2026-05-05 12:35 | 47.38236 | -57.41959 | 37903 ft | 458 kts | 245° |
| 2026-05-05 12:36 | 47.35430 | -57.50398 | 37904 ft | 458 kts | 245° |
| 2026-05-05 12:36 | 47.33095 | -57.57397 | 37904 ft | 458 kts | 245° |
| 2026-05-05 12:37 | 47.30234 | -57.65947 | 37909 ft | 458 kts | 245° |
| 2026-05-05 12:37 | 47.29759 | -57.67365 | 37905 ft | 458 kts | 245° |
| 2026-05-05 12:38 | 47.27813 | -57.73159 | 37891 ft | 458 kts | 245° |
| 2026-05-05 12:38 | 47.24983 | -57.81568 | 37898 ft | 458 kts | 245° |
| 2026-05-05 12:39 | 47.22144 | -57.89973 | 37898 ft | 459 kts | 245° |
| 2026-05-05 12:39 | 47.19317 | -57.98317 | 37903 ft | 459 kts | 245° |
| 2026-05-05 12:40 | 47.16466 | -58.06704 | 37901 ft | 459 kts | 245° |
| 2026-05-05 12:40 | 47.13608 | -58.15085 | 37921 ft | 459 kts | 245° |
| 2026-05-05 12:41 | 47.10744 | -58.23457 | 37925 ft | 459 kts | 245° |
| 2026-05-05 12:41 | 47.07873 | -58.31823 | 37926 ft | 459 kts | 245° |
| 2026-05-05 12:42 | 47.05015 | -58.40125 | 37928 ft | 459 kts | 245° |
| 2026-05-05 12:42 | 47.02131 | -58.48472 | 37927 ft | 459 kts | 245° |
| 2026-05-05 12:43 | 46.99246 | -58.56801 | 37925 ft | 459 kts | 245° |
| 2026-05-05 12:43 | 46.96346 | -58.65143 | 37932 ft | 460 kts | 245° |
| 2026-05-05 12:44 | 46.93457 | -58.73429 | 37935 ft | 460 kts | 245° |
| 2026-05-05 12:44 | 46.90540 | -58.81768 | 37917 ft | 460 kts | 245° |
| 2026-05-05 12:45 | 46.87618 | -58.90096 | 37937 ft | 460 kts | 245° |
| 2026-05-05 12:45 | 46.85660 | -58.95662 | 37943 ft | 461 kts | 245° |
| 2026-05-05 12:46 | 46.84369 | -58.99325 | 37942 ft | 461 kts | 245° |
| 2026-05-05 12:46 | 46.81453 | -59.07578 | 37942 ft | 461 kts | 245° |
| 2026-05-05 12:47 | 46.78509 | -59.15889 | 37938 ft | 461 kts | 245° |
| 2026-05-05 12:47 | 46.75558 | -59.24190 | 37938 ft | 461 kts | 245° |
| 2026-05-05 12:48 | 46.72602 | -59.32482 | 37939 ft | 461 kts | 245° |
| 2026-05-05 12:48 | 46.69658 | -59.40711 | 37939 ft | 461 kts | 245° |
| 2026-05-05 12:49 | 46.66692 | -59.48978 | 37939 ft | 461 kts | 245° |
| 2026-05-05 12:49 | 46.63718 | -59.57241 | 37937 ft | 460 kts | 245° |
| 2026-05-05 12:50 | 46.60743 | -59.65483 | 37941 ft | 460 kts | 245° |
| 2026-05-05 12:50 | 46.57762 | -59.73714 | 37929 ft | 460 kts | 245° |
| 2026-05-05 12:51 | 46.54778 | -59.81930 | 37933 ft | 460 kts | 245° |
| 2026-05-05 12:51 | 46.51838 | -59.89999 | 37950 ft | 459 kts | 245° |
| 2026-05-05 12:52 | 46.48849 | -59.98178 | 37939 ft | 458 kts | 245° |
| 2026-05-05 12:52 | 46.46161 | -60.05511 | 37929 ft | 458 kts | 245° |
| 2026-05-05 12:53 | 46.43165 | -60.13663 | 37928 ft | 458 kts | 245° |
| 2026-05-05 12:53 | 46.40188 | -60.21736 | 37932 ft | 457 kts | 245° |
| 2026-05-05 12:54 | 46.35840 | -60.33485 | 37952 ft | 455 kts | 245° |
| 2026-05-05 12:55 | 46.32878 | -60.41460 | 37940 ft | 454 kts | 245° |
| 2026-05-05 12:55 | 46.29886 | -60.49493 | 37930 ft | 453 kts | 245° |
| 2026-05-05 12:56 | 46.26911 | -60.57457 | 37930 ft | 453 kts | 245° |
| 2026-05-05 12:56 | 46.23917 | -60.65444 | 37933 ft | 452 kts | 245° |
| 2026-05-05 12:57 | 46.20924 | -60.73408 | 37927 ft | 451 kts | 245° |
| 2026-05-05 12:57 | 46.17925 | -60.81363 | 37921 ft | 451 kts | 245° |
| 2026-05-05 12:58 | 46.14948 | -60.89240 | 37923 ft | 450 kts | 245° |
| 2026-05-05 12:58 | 46.11943 | -60.97170 | 37904 ft | 451 kts | 245° |
| 2026-05-05 12:59 | 46.08925 | -61.05107 | 37910 ft | 452 kts | 245° |
| 2026-05-05 12:59 | 46.05921 | -61.12984 | 37914 ft | 452 kts | 245° |
| 2026-05-05 13:00 | 46.01369 | -61.24876 | 37932 ft | 453 kts | 245° |
| 2026-05-05 13:01 | 45.96410 | -61.37778 | 37934 ft | 453 kts | 245° |
| 2026-05-05 13:01 | 45.93376 | -61.45640 | 37937 ft | 454 kts | 245° |
| 2026-05-05 13:02 | 45.90309 | -61.53563 | 37943 ft | 454 kts | 244° |
| 2026-05-05 13:02 | 45.87236 | -61.61481 | 37912 ft | 454 kts | 244° |
| 2026-05-05 13:03 | 45.84192 | -61.69299 | 37944 ft | 454 kts | 244° |
| 2026-05-05 13:03 | 45.81108 | -61.77201 | 37952 ft | 454 kts | 244° |
| 2026-05-05 13:04 | 45.78035 | -61.85050 | 37950 ft | 455 kts | 244° |
| 2026-05-05 13:04 | 45.74938 | -61.92938 | 37942 ft | 455 kts | 244° |
| 2026-05-05 13:05 | 45.71836 | -62.00816 | 37941 ft | 454 kts | 244° |
| 2026-05-05 13:05 | 45.68731 | -62.08678 | 37938 ft | 454 kts | 244° |
| 2026-05-05 13:06 | 45.65642 | -62.16480 | 37947 ft | 454 kts | 244° |
| 2026-05-05 13:06 | 45.62527 | -62.24324 | 37938 ft | 454 kts | 244° |
| 2026-05-05 13:07 | 45.59411 | -62.32150 | 37973 ft | 453 kts | 244° |
| 2026-05-05 13:07 | 45.56290 | -62.39964 | 37957 ft | 453 kts | 244° |
| 2026-05-05 13:08 | 45.53165 | -62.47767 | 37969 ft | 453 kts | 244° |
| 2026-05-05 13:08 | 45.50059 | -62.55501 | 37972 ft | 452 kts | 244° |
| 2026-05-05 13:09 | 45.46932 | -62.63263 | 37969 ft | 451 kts | 244° |
| 2026-05-05 13:09 | 45.43804 | -62.71009 | 37966 ft | 451 kts | 244° |
| 2026-05-05 13:10 | 45.40678 | -62.78729 | 37968 ft | 450 kts | 244° |
| 2026-05-05 13:10 | 45.37545 | -62.86443 | 37962 ft | 450 kts | 243° |
| 2026-05-05 13:11 | 45.34430 | -62.94092 | 37958 ft | 450 kts | 243° |
| 2026-05-05 13:11 | 45.31296 | -63.01768 | 37977 ft | 448 kts | 243° |
| 2026-05-05 13:12 | 45.28161 | -63.09424 | 37975 ft | 448 kts | 243° |
| 2026-05-05 13:12 | 45.25025 | -63.17063 | 37962 ft | 448 kts | 243° |
| 2026-05-05 13:13 | 45.21890 | -63.24678 | 37967 ft | 447 kts | 243° |
| 2026-05-05 13:13 | 45.18769 | -63.32239 | 37952 ft | 447 kts | 243° |
| 2026-05-05 13:14 | 45.15626 | -63.39832 | 37956 ft | 447 kts | 243° |
| 2026-05-05 13:14 | 45.12474 | -63.47426 | 37952 ft | 447 kts | 243° |
| 2026-05-05 13:15 | 45.09316 | -63.55015 | 37957 ft | 447 kts | 243° |
| 2026-05-05 13:15 | 45.06173 | -63.62546 | 37953 ft | 447 kts | 243° |
| 2026-05-05 13:16 | 45.03003 | -63.70123 | 37947 ft | 448 kts | 243° |
| 2026-05-05 13:16 | 44.99825 | -63.77699 | 37952 ft | 448 kts | 243° |
| 2026-05-05 13:17 | 44.96641 | -63.85266 | 37956 ft | 449 kts | 243° |
| 2026-05-05 13:17 | 44.93447 | -63.92838 | 37939 ft | 449 kts | 243° |
| 2026-05-05 13:18 | 44.90267 | -64.00359 | 37935 ft | 450 kts | 243° |
| 2026-05-05 13:18 | 44.87052 | -64.07941 | 37945 ft | 451 kts | 243° |
| 2026-05-05 13:19 | 44.83826 | -64.15528 | 37956 ft | 452 kts | 242° |
| 2026-05-05 13:19 | 44.80588 | -64.23123 | 37928 ft | 453 kts | 242° |
| 2026-05-05 13:20 | 44.77363 | -64.30668 | 37961 ft | 454 kts | 242° |
| 2026-05-05 13:20 | 44.74100 | -64.38281 | 37972 ft | 455 kts | 242° |
| 2026-05-05 13:21 | 44.70827 | -64.45897 | 37975 ft | 455 kts | 242° |
| 2026-05-05 13:21 | 44.67545 | -64.53512 | 37988 ft | 455 kts | 242° |
| 2026-05-05 13:22 | 44.64280 | -64.61071 | 37974 ft | 456 kts | 242° |
| 2026-05-05 13:22 | 44.60985 | -64.68677 | 37976 ft | 456 kts | 242° |
| 2026-05-05 13:23 | 44.57681 | -64.76283 | 37991 ft | 457 kts | 242° |
| 2026-05-05 13:23 | 44.54932 | -64.82595 | 37997 ft | 457 kts | 242° |
| 2026-05-05 13:24 | 44.51081 | -64.91416 | 37988 ft | 457 kts | 242° |
| 2026-05-05 13:24 | 44.47760 | -64.99000 | 37994 ft | 457 kts | 242° |
| 2026-05-05 13:25 | 44.44994 | -65.05301 | 37995 ft | 457 kts | 242° |
| 2026-05-05 13:25 | 44.41663 | -65.12874 | 37997 ft | 457 kts | 242° |
| 2026-05-05 13:26 | 44.37785 | -65.21661 | 37992 ft | 457 kts | 242° |
| 2026-05-05 13:26 | 44.34988 | -65.27984 | 37999 ft | 457 kts | 242° |
| 2026-05-05 13:27 | 44.31662 | -65.35484 | 38006 ft | 457 kts | 242° |
| 2026-05-05 13:27 | 44.28310 | -65.43025 | 38000 ft | 457 kts | 242° |
| 2026-05-05 13:28 | 44.24952 | -65.50556 | 38004 ft | 457 kts | 242° |
| 2026-05-05 13:28 | 44.21594 | -65.58070 | 38003 ft | 457 kts | 241° |
| 2026-05-05 13:29 | 44.18228 | -65.65583 | 38003 ft | 457 kts | 241° |
| 2026-05-05 13:29 | 44.14878 | -65.73039 | 38004 ft | 457 kts | 241° |
| 2026-05-05 13:30 | 44.11501 | -65.80536 | 38005 ft | 457 kts | 241° |
| 2026-05-05 13:30 | 44.08119 | -65.88026 | 38009 ft | 457 kts | 241° |
| 2026-05-05 13:31 | 44.04731 | -65.95508 | 38003 ft | 457 kts | 241° |
| 2026-05-05 13:31 | 44.01360 | -66.02932 | 38003 ft | 457 kts | 241° |